AFR10E RPLL-LFPO
Flight info
| Callsign | AFR10E |
|---|---|
| Flight time | N/A |
| Altitude | 34000 |
| Route | SIRCA2R SIRCA L628 ARESI/K0939F340 L628 PCA G474 ANINA/N0507F340 G474 VEMKO M633 TANEK L301 BUSBO/N0504F360 L301 RAGMA N571 KIROP/N0495F380 N571 MENSA/N0509F340 N571 TUDIS/N0495F380 N571 ALPOB L768 VATIM L550 RUKET/N0488F400 L550 NOVPA N697 MENLI L677 CVO L617 NABSI M872 METRU UM872 LATAN DCT ULFIG DCT URIPI DCT GUDPO DCT VABMO DCT EVANO DCT TERSI/N0504F300 L615 DJL |
| Aircraft | A359/H-SDE2E3GHIJ3J4J5LM1ORWXY/LB1D1 |
Departure
| Time | 2026-04-30 05:33 |
|---|---|
| Airport | Ninoy Aquino International Airport (RPLL) |
Arrival
| Time | N/A |
|---|---|
| Airport | Paris-Orly Airport (LFPO) |
| Time | Latitude | Longitude | Altitude | Speed | Heading |
|---|---|---|---|---|---|
| 2026-04-30 05:17 | 14.50586 | 121.00580 | 93 ft | 0 kts | 191° |
| 2026-04-30 05:24 | 14.50592 | 121.00582 | 75 ft | 4 kts | 189° |
| 2026-04-30 05:24 | 14.50619 | 121.00584 | 67 ft | 4 kts | 176° |
| 2026-04-30 05:25 | 14.50645 | 121.00579 | 64 ft | 4 kts | 150° |
| 2026-04-30 05:25 | 14.50660 | 121.00563 | 64 ft | 4 kts | 88° |
| 2026-04-30 05:25 | 14.50660 | 121.00557 | 64 ft | 0 kts | 73° |
| 2026-04-30 05:28 | 14.50669 | 121.00608 | 65 ft | 13 kts | 85° |
| 2026-04-30 05:28 | 14.50642 | 121.00715 | 70 ft | 16 kts | 109° |
| 2026-04-30 05:28 | 14.50598 | 121.00769 | 64 ft | 15 kts | 142° |
| 2026-04-30 05:29 | 14.50509 | 121.00821 | 65 ft | 14 kts | 161° |
| 2026-04-30 05:29 | 14.50414 | 121.00810 | 66 ft | 14 kts | 199° |
| 2026-04-30 05:29 | 14.50348 | 121.00743 | 66 ft | 13 kts | 238° |
| 2026-04-30 05:29 | 14.50302 | 121.00662 | 66 ft | 13 kts | 240° |
| 2026-04-30 05:30 | 14.50258 | 121.00583 | 71 ft | 13 kts | 240° |
| 2026-04-30 05:30 | 14.50205 | 121.00488 | 65 ft | 18 kts | 240° |
| 2026-04-30 05:30 | 14.50135 | 121.00361 | 66 ft | 23 kts | 241° |
| 2026-04-30 05:30 | 14.50053 | 121.00210 | 69 ft | 25 kts | 240° |
| 2026-04-30 05:31 | 14.49970 | 121.00059 | 66 ft | 22 kts | 240° |
| 2026-04-30 05:31 | 14.49923 | 120.99986 | 66 ft | 8 kts | 220° |
| 2026-04-30 05:31 | 14.49872 | 120.99976 | 65 ft | 8 kts | 171° |
| 2026-04-30 05:31 | 14.49821 | 121.00004 | 70 ft | 8 kts | 135° |
| 2026-04-30 05:32 | 14.49816 | 121.00053 | 70 ft | 7 kts | 73° |
| 2026-04-30 05:32 | 14.49835 | 121.00097 | 65 ft | 7 kts | 63° |
| 2026-04-30 05:32 | 14.49863 | 121.00147 | 64 ft | 14 kts | 60° |
| 2026-04-30 05:32 | 14.50015 | 121.00421 | 63 ft | 77 kts | 60° |
| 2026-04-30 05:33 | 14.50388 | 121.01091 | 68 ft | 136 kts | 60° |
| 2026-04-30 05:33 | 14.50942 | 121.02090 | 110 ft | 183 kts | 57° |
| 2026-04-30 05:33 | 14.51579 | 121.03198 | 887 ft | 175 kts | 59° |
| 2026-04-30 05:33 | 14.52254 | 121.04330 | 1310 ft | 190 kts | 59° |
| 2026-04-30 05:34 | 14.52935 | 121.05480 | 1719 ft | 186 kts | 60° |
| 2026-04-30 05:34 | 14.53600 | 121.06613 | 2060 ft | 184 kts | 61° |
| 2026-04-30 05:34 | 14.54229 | 121.07756 | 2384 ft | 183 kts | 64° |
| 2026-04-30 05:34 | 14.54821 | 121.08934 | 2653 ft | 188 kts | 64° |
| 2026-04-30 05:35 | 14.55452 | 121.10151 | 2820 ft | 198 kts | 63° |
| 2026-04-30 05:35 | 14.56143 | 121.11423 | 2987 ft | 209 kts | 61° |
| 2026-04-30 05:35 | 14.57078 | 121.12622 | 3130 ft | 223 kts | 42° |
| 2026-04-30 05:35 | 14.58503 | 121.13372 | 3242 ft | 240 kts | 14° |
| 2026-04-30 05:36 | 14.60210 | 121.13519 | 3401 ft | 253 kts | 2° |
| 2026-04-30 05:36 | 14.61985 | 121.13506 | 3751 ft | 257 kts | 1° |
| 2026-04-30 05:36 | 14.63787 | 121.13492 | 4170 ft | 259 kts | 2° |
| 2026-04-30 05:36 | 14.65565 | 121.13489 | 4600 ft | 259 kts | 2° |
| 2026-04-30 05:37 | 14.67369 | 121.13311 | 4953 ft | 264 kts | 347° |
| 2026-04-30 05:37 | 14.68984 | 121.12387 | 5316 ft | 271 kts | 316° |
| 2026-04-30 05:37 | 14.69958 | 121.10729 | 5713 ft | 276 kts | 287° |
| 2026-04-30 05:37 | 14.70161 | 121.08748 | 6074 ft | 280 kts | 270° |
| 2026-04-30 05:38 | 14.70121 | 121.06727 | 6495 ft | 282 kts | 269° |
| 2026-04-30 05:38 | 14.70077 | 121.04697 | 6875 ft | 284 kts | 269° |
| 2026-04-30 05:38 | 14.70044 | 121.02650 | 7293 ft | 285 kts | 270° |
| 2026-04-30 05:38 | 14.70002 | 121.00598 | 7723 ft | 287 kts | 266° |
| 2026-04-30 05:39 | 14.69606 | 120.98576 | 8071 ft | 291 kts | 251° |
| 2026-04-30 05:39 | 14.68913 | 120.96583 | 8383 ft | 298 kts | 248° |
| 2026-04-30 05:39 | 14.68170 | 120.94568 | 8816 ft | 300 kts | 249° |
| 2026-04-30 05:39 | 14.67431 | 120.92545 | 9257 ft | 302 kts | 249° |
| 2026-04-30 05:40 | 14.66691 | 120.90505 | 9703 ft | 304 kts | 249° |
| 2026-04-30 05:40 | 14.65951 | 120.88456 | 10094 ft | 306 kts | 249° |
| 2026-04-30 05:40 | 14.65197 | 120.86363 | 10308 ft | 316 kts | 249° |
| 2026-04-30 05:40 | 14.64418 | 120.84199 | 10498 ft | 326 kts | 249° |
| 2026-04-30 05:41 | 14.63613 | 120.81972 | 10691 ft | 336 kts | 249° |
| 2026-04-30 05:41 | 14.62786 | 120.79681 | 10866 ft | 345 kts | 249° |
| 2026-04-30 05:41 | 14.61941 | 120.77333 | 11068 ft | 354 kts | 249° |
| 2026-04-30 05:41 | 14.61074 | 120.74923 | 11247 ft | 363 kts | 249° |
| 2026-04-30 05:42 | 14.60183 | 120.72450 | 11425 ft | 371 kts | 249° |
| 2026-04-30 05:42 | 14.59274 | 120.69929 | 11600 ft | 379 kts | 249° |
| 2026-04-30 05:42 | 14.58345 | 120.67354 | 11764 ft | 386 kts | 249° |
| 2026-04-30 05:42 | 14.57397 | 120.64728 | 11936 ft | 393 kts | 249° |
| 2026-04-30 05:43 | 14.56435 | 120.62065 | 12087 ft | 400 kts | 249° |
| 2026-04-30 05:43 | 14.55454 | 120.59350 | 12238 ft | 406 kts | 249° |
| 2026-04-30 05:43 | 14.54459 | 120.56596 | 12439 ft | 411 kts | 249° |
| 2026-04-30 05:43 | 14.53460 | 120.53831 | 12705 ft | 413 kts | 249° |
| 2026-04-30 05:44 | 14.52452 | 120.51046 | 12972 ft | 415 kts | 249° |
| 2026-04-30 05:44 | 14.51439 | 120.48246 | 13218 ft | 418 kts | 249° |
| 2026-04-30 05:44 | 14.50419 | 120.45425 | 13489 ft | 419 kts | 249° |
| 2026-04-30 05:44 | 14.49396 | 120.42599 | 13657 ft | 424 kts | 249° |
| 2026-04-30 05:45 | 14.48359 | 120.39738 | 13864 ft | 426 kts | 249° |
| 2026-04-30 05:45 | 14.47320 | 120.36874 | 14226 ft | 423 kts | 249° |
| 2026-04-30 05:45 | 14.46350 | 120.34015 | 14515 ft | 424 kts | 254° |
| 2026-04-30 05:45 | 14.45784 | 120.31020 | 14743 ft | 426 kts | 262° |
| 2026-04-30 05:46 | 14.45470 | 120.27981 | 14960 ft | 427 kts | 265° |
| 2026-04-30 05:46 | 14.45274 | 120.24918 | 15179 ft | 429 kts | 266° |
| 2026-04-30 05:46 | 14.45118 | 120.21842 | 15414 ft | 430 kts | 266° |
| 2026-04-30 05:46 | 14.44960 | 120.18755 | 15652 ft | 431 kts | 266° |
| 2026-04-30 05:47 | 14.44783 | 120.15660 | 15879 ft | 432 kts | 266° |
| 2026-04-30 05:47 | 14.44588 | 120.12566 | 16106 ft | 434 kts | 265° |
| 2026-04-30 05:47 | 14.44377 | 120.09453 | 16337 ft | 435 kts | 265° |
| 2026-04-30 05:47 | 14.44157 | 120.06343 | 16562 ft | 436 kts | 265° |
| 2026-04-30 05:48 | 14.43932 | 120.03216 | 16779 ft | 437 kts | 265° |
| 2026-04-30 05:48 | 14.43704 | 120.00080 | 17007 ft | 439 kts | 265° |
| 2026-04-30 05:48 | 14.43476 | 119.96936 | 17236 ft | 440 kts | 265° |
| 2026-04-30 05:48 | 14.43248 | 119.93786 | 17460 ft | 441 kts | 265° |
| 2026-04-30 05:49 | 14.43023 | 119.90628 | 17695 ft | 442 kts | 265° |
| 2026-04-30 05:49 | 14.42794 | 119.87461 | 17898 ft | 444 kts | 265° |
| 2026-04-30 05:49 | 14.42564 | 119.84282 | 18135 ft | 445 kts | 265° |
| 2026-04-30 05:49 | 14.42334 | 119.81127 | 18320 ft | 446 kts | 265° |
| 2026-04-30 05:50 | 14.42102 | 119.77928 | 18492 ft | 448 kts | 265° |
| 2026-04-30 05:50 | 14.41872 | 119.74725 | 18692 ft | 449 kts | 265° |
| 2026-04-30 05:50 | 14.41639 | 119.71511 | 18888 ft | 450 kts | 265° |
| 2026-04-30 05:50 | 14.41402 | 119.68290 | 19076 ft | 451 kts | 265° |
| 2026-04-30 05:51 | 14.41165 | 119.65064 | 19267 ft | 452 kts | 265° |
| 2026-04-30 05:51 | 14.40927 | 119.61824 | 19450 ft | 453 kts | 265° |
| 2026-04-30 05:51 | 14.40689 | 119.58587 | 19637 ft | 454 kts | 265° |
| 2026-04-30 05:51 | 14.40449 | 119.55333 | 19817 ft | 455 kts | 265° |
| 2026-04-30 05:52 | 14.40209 | 119.52081 | 19989 ft | 456 kts | 265° |
| 2026-04-30 05:52 | 14.39970 | 119.48813 | 20148 ft | 458 kts | 265° |
| 2026-04-30 05:52 | 14.39729 | 119.45532 | 20363 ft | 458 kts | 265° |
| 2026-04-30 05:52 | 14.39487 | 119.42259 | 20563 ft | 459 kts | 265° |
| 2026-04-30 05:53 | 14.39241 | 119.38972 | 20739 ft | 460 kts | 265° |
| 2026-04-30 05:53 | 14.38994 | 119.35674 | 20935 ft | 461 kts | 265° |
| 2026-04-30 05:53 | 14.38747 | 119.32369 | 21137 ft | 462 kts | 265° |
| 2026-04-30 05:53 | 14.38500 | 119.29067 | 21352 ft | 463 kts | 265° |
| 2026-04-30 05:54 | 14.38252 | 119.25754 | 21528 ft | 464 kts | 264° |
| 2026-04-30 05:54 | 14.38003 | 119.22432 | 21743 ft | 464 kts | 265° |
| 2026-04-30 05:54 | 14.37753 | 119.19109 | 21985 ft | 465 kts | 265° |
| 2026-04-30 05:54 | 14.37503 | 119.15787 | 22175 ft | 466 kts | 265° |
| 2026-04-30 05:55 | 14.37252 | 119.12451 | 22385 ft | 467 kts | 265° |
| 2026-04-30 05:55 | 14.37003 | 119.09159 | 22526 ft | 469 kts | 265° |
| 2026-04-30 05:55 | 14.36748 | 119.05795 | 22710 ft | 470 kts | 265° |
| 2026-04-30 05:55 | 14.36493 | 119.02426 | 22930 ft | 471 kts | 265° |
| 2026-04-30 05:56 | 14.36237 | 118.99058 | 23152 ft | 472 kts | 265° |
| 2026-04-30 05:56 | 14.35976 | 118.95632 | 23359 ft | 473 kts | 265° |
| 2026-04-30 05:56 | 14.35722 | 118.92295 | 23581 ft | 473 kts | 265° |
| 2026-04-30 05:56 | 14.35464 | 118.88914 | 23786 ft | 473 kts | 265° |
| 2026-04-30 05:57 | 14.35205 | 118.85537 | 23991 ft | 473 kts | 265° |
| 2026-04-30 05:57 | 14.34945 | 118.82147 | 24121 ft | 475 kts | 265° |
| 2026-04-30 05:57 | 14.34684 | 118.78750 | 24259 ft | 477 kts | 265° |
| 2026-04-30 05:57 | 14.34421 | 118.75338 | 24463 ft | 477 kts | 264° |
| 2026-04-30 05:58 | 14.34158 | 118.71927 | 24705 ft | 477 kts | 265° |
| 2026-04-30 05:58 | 14.33894 | 118.68511 | 24846 ft | 479 kts | 265° |
| 2026-04-30 05:58 | 14.33629 | 118.65082 | 24974 ft | 481 kts | 264° |
| 2026-04-30 05:58 | 14.33362 | 118.61641 | 25251 ft | 480 kts | 264° |
| 2026-04-30 05:59 | 14.33095 | 118.58210 | 25467 ft | 481 kts | 265° |
| 2026-04-30 05:59 | 14.32828 | 118.54773 | 25626 ft | 483 kts | 265° |
| 2026-04-30 05:59 | 14.32558 | 118.51313 | 25807 ft | 484 kts | 264° |
| 2026-04-30 05:59 | 14.32287 | 118.47845 | 26056 ft | 484 kts | 264° |
| 2026-04-30 06:00 | 14.32016 | 118.44381 | 26261 ft | 486 kts | 264° |
| 2026-04-30 06:00 | 14.31743 | 118.40904 | 26440 ft | 488 kts | 264° |
| 2026-04-30 06:00 | 14.31468 | 118.37409 | 26665 ft | 489 kts | 264° |
| 2026-04-30 06:00 | 14.31193 | 118.33915 | 26950 ft | 488 kts | 264° |
| 2026-04-30 06:01 | 14.30921 | 118.30423 | 27158 ft | 490 kts | 264° |
| 2026-04-30 06:01 | 14.30645 | 118.26914 | 27320 ft | 493 kts | 264° |
| 2026-04-30 06:01 | 14.30365 | 118.23387 | 27569 ft | 493 kts | 264° |
| 2026-04-30 06:01 | 14.30083 | 118.19859 | 27772 ft | 494 kts | 264° |
| 2026-04-30 06:02 | 14.29801 | 118.16321 | 27962 ft | 496 kts | 264° |
| 2026-04-30 06:02 | 14.29517 | 118.12771 | 28139 ft | 497 kts | 264° |
| 2026-04-30 06:02 | 14.29233 | 118.09213 | 28373 ft | 498 kts | 264° |
| 2026-04-30 06:02 | 14.28947 | 118.05645 | 28556 ft | 500 kts | 264° |
| 2026-04-30 06:03 | 14.28661 | 118.02076 | 28795 ft | 499 kts | 264° |
| 2026-04-30 06:03 | 14.28375 | 117.98510 | 29098 ft | 498 kts | 264° |
| 2026-04-30 06:03 | 14.28090 | 117.94957 | 29375 ft | 497 kts | 264° |
| 2026-04-30 06:03 | 14.27804 | 117.91409 | 29637 ft | 496 kts | 264° |
| 2026-04-30 06:04 | 14.27518 | 117.87866 | 29908 ft | 495 kts | 264° |
| 2026-04-30 06:04 | 14.27233 | 117.84335 | 30140 ft | 494 kts | 264° |
| 2026-04-30 06:04 | 14.26947 | 117.80805 | 30331 ft | 494 kts | 264° |
| 2026-04-30 06:05 | 14.26374 | 117.73751 | 30713 ft | 493 kts | 264° |
| 2026-04-30 06:05 | 14.26087 | 117.70227 | 30887 ft | 493 kts | 264° |
| 2026-04-30 06:05 | 14.25799 | 117.66708 | 31070 ft | 493 kts | 264° |
| 2026-04-30 06:05 | 14.25512 | 117.63191 | 31247 ft | 492 kts | 264° |
| 2026-04-30 06:06 | 14.25224 | 117.59679 | 31416 ft | 492 kts | 264° |
| 2026-04-30 06:06 | 14.24645 | 117.52628 | 31647 ft | 494 kts | 264° |
| 2026-04-30 06:06 | 14.24354 | 117.49098 | 31840 ft | 493 kts | 264° |
| 2026-04-30 06:07 | 14.24065 | 117.45589 | 32045 ft | 492 kts | 264° |
| 2026-04-30 06:07 | 14.23776 | 117.42096 | 32226 ft | 491 kts | 264° |
| 2026-04-30 06:07 | 14.23485 | 117.38581 | 32398 ft | 490 kts | 264° |
| 2026-04-30 06:07 | 14.23199 | 117.35124 | 32523 ft | 490 kts | 264° |
| 2026-04-30 06:08 | 14.22908 | 117.31626 | 32681 ft | 490 kts | 264° |
| 2026-04-30 06:08 | 14.22617 | 117.28130 | 32829 ft | 489 kts | 264° |
| 2026-04-30 06:08 | 14.22326 | 117.24640 | 32970 ft | 489 kts | 264° |
| 2026-04-30 06:08 | 14.22034 | 117.21147 | 33108 ft | 489 kts | 264° |
| 2026-04-30 06:09 | 14.21742 | 117.17659 | 33246 ft | 489 kts | 264° |
| 2026-04-30 06:09 | 14.21450 | 117.14169 | 33391 ft | 488 kts | 264° |
| 2026-04-30 06:09 | 14.21159 | 117.10701 | 33540 ft | 487 kts | 263° |
| 2026-04-30 06:09 | 14.20865 | 117.07214 | 33663 ft | 487 kts | 263° |
| 2026-04-30 06:10 | 14.20573 | 117.03739 | 33788 ft | 486 kts | 263° |
| 2026-04-30 06:10 | 14.20280 | 117.00269 | 33889 ft | 486 kts | 263° |
| 2026-04-30 06:10 | 14.19985 | 116.96794 | 33916 ft | 488 kts | 263° |
| 2026-04-30 06:11 | 14.19390 | 116.89795 | 33915 ft | 492 kts | 263° |
| 2026-04-30 06:11 | 14.18886 | 116.83900 | 33915 ft | 492 kts | 263° |
| 2026-04-30 06:12 | 14.18290 | 116.76891 | 33915 ft | 491 kts | 263° |
| 2026-04-30 06:12 | 14.17692 | 116.69887 | 33913 ft | 491 kts | 263° |
| 2026-04-30 06:13 | 14.17089 | 116.62872 | 33911 ft | 491 kts | 263° |
| 2026-04-30 06:13 | 14.16485 | 116.55866 | 33914 ft | 491 kts | 263° |
| 2026-04-30 06:14 | 14.15879 | 116.48868 | 33909 ft | 490 kts | 263° |
| 2026-04-30 06:14 | 14.15272 | 116.41877 | 33909 ft | 490 kts | 263° |
| 2026-04-30 06:15 | 14.14663 | 116.34882 | 33912 ft | 490 kts | 263° |
| 2026-04-30 06:15 | 14.14055 | 116.27937 | 33911 ft | 490 kts | 263° |
| 2026-04-30 06:16 | 14.13442 | 116.20949 | 33914 ft | 489 kts | 263° |
| 2026-04-30 06:16 | 14.12829 | 116.13980 | 33911 ft | 489 kts | 263° |
| 2026-04-30 06:17 | 14.12213 | 116.07002 | 33913 ft | 489 kts | 263° |
| 2026-04-30 06:17 | 14.11595 | 116.00028 | 33912 ft | 490 kts | 263° |
| 2026-04-30 06:18 | 14.10972 | 115.93025 | 33912 ft | 491 kts | 263° |
| 2026-04-30 06:18 | 14.10347 | 115.86019 | 33911 ft | 490 kts | 263° |
| 2026-04-30 06:19 | 14.09722 | 115.79031 | 33910 ft | 490 kts | 263° |
| 2026-04-30 06:19 | 14.09094 | 115.72035 | 33912 ft | 490 kts | 263° |
| 2026-04-30 06:20 | 14.08465 | 115.65051 | 33911 ft | 490 kts | 263° |
| 2026-04-30 06:20 | 14.07834 | 115.58066 | 33913 ft | 489 kts | 263° |
| 2026-04-30 06:21 | 14.07203 | 115.51102 | 33909 ft | 488 kts | 263° |
| 2026-04-30 06:21 | 14.06569 | 115.44132 | 33911 ft | 488 kts | 263° |
| 2026-04-30 06:22 | 14.05933 | 115.37169 | 33913 ft | 489 kts | 263° |
| 2026-04-30 06:22 | 14.05296 | 115.30202 | 33912 ft | 489 kts | 263° |
| 2026-04-30 06:23 | 14.04657 | 115.23247 | 33912 ft | 489 kts | 263° |
| 2026-04-30 06:23 | 14.04014 | 115.16263 | 33911 ft | 489 kts | 263° |
| 2026-04-30 06:24 | 14.03370 | 115.09294 | 33906 ft | 489 kts | 263° |
| 2026-04-30 06:24 | 14.02724 | 115.02321 | 33908 ft | 489 kts | 263° |
| 2026-04-30 06:25 | 14.02075 | 114.95352 | 33916 ft | 489 kts | 263° |
| 2026-04-30 06:25 | 14.01425 | 114.88375 | 33914 ft | 489 kts | 263° |
| 2026-04-30 06:26 | 14.00772 | 114.81404 | 33909 ft | 489 kts | 263° |
| 2026-04-30 06:26 | 14.00118 | 114.74436 | 33911 ft | 489 kts | 263° |
| 2026-04-30 06:27 | 13.99462 | 114.67462 | 33911 ft | 489 kts | 263° |
| 2026-04-30 06:27 | 13.98804 | 114.60493 | 33914 ft | 489 kts | 263° |
| 2026-04-30 06:28 | 13.98143 | 114.53522 | 33911 ft | 489 kts | 263° |
| 2026-04-30 06:28 | 13.97493 | 114.46592 | 33911 ft | 489 kts | 264° |
| 2026-04-30 06:29 | 13.97368 | 114.39581 | 33911 ft | 490 kts | 268° |
| 2026-04-30 06:29 | 13.97405 | 114.32565 | 33914 ft | 491 kts | 269° |
| 2026-04-30 06:30 | 13.97466 | 114.25532 | 33913 ft | 491 kts | 269° |
| 2026-04-30 06:30 | 13.97521 | 114.18509 | 33911 ft | 491 kts | 269° |
| 2026-04-30 06:31 | 13.97568 | 114.11488 | 33915 ft | 491 kts | 269° |
| 2026-04-30 06:31 | 13.97610 | 114.04470 | 33917 ft | 490 kts | 269° |
| 2026-04-30 06:32 | 13.97650 | 113.97448 | 33912 ft | 490 kts | 269° |
| 2026-04-30 06:32 | 13.97689 | 113.90427 | 33916 ft | 490 kts | 269° |
| 2026-04-30 06:33 | 13.97726 | 113.83405 | 33917 ft | 490 kts | 269° |
| 2026-04-30 06:33 | 13.97761 | 113.76380 | 33912 ft | 490 kts | 269° |
| 2026-04-30 06:34 | 13.97794 | 113.69360 | 33913 ft | 490 kts | 269° |
| 2026-04-30 06:34 | 13.97824 | 113.62337 | 33911 ft | 490 kts | 269° |
| 2026-04-30 06:35 | 13.97853 | 113.55310 | 33913 ft | 490 kts | 269° |
| 2026-04-30 06:35 | 13.97880 | 113.48290 | 33909 ft | 490 kts | 269° |
| 2026-04-30 06:36 | 13.97905 | 113.41269 | 33913 ft | 490 kts | 269° |
| 2026-04-30 06:36 | 13.97927 | 113.34250 | 33913 ft | 490 kts | 269° |
| 2026-04-30 06:37 | 13.97948 | 113.27228 | 33911 ft | 491 kts | 269° |
| 2026-04-30 06:37 | 13.97967 | 113.20204 | 33915 ft | 490 kts | 269° |
| 2026-04-30 06:38 | 13.97983 | 113.13215 | 33912 ft | 490 kts | 269° |
| 2026-04-30 06:38 | 13.97998 | 113.06143 | 33915 ft | 490 kts | 269° |
| 2026-04-30 06:39 | 13.98012 | 112.99166 | 33916 ft | 490 kts | 269° |
| 2026-04-30 06:39 | 13.98024 | 112.92147 | 33915 ft | 490 kts | 269° |
| 2026-04-30 06:40 | 13.98034 | 112.85127 | 33911 ft | 490 kts | 269° |
| 2026-04-30 06:40 | 13.98041 | 112.78102 | 33919 ft | 490 kts | 269° |
| 2026-04-30 06:41 | 13.98047 | 112.71090 | 33916 ft | 490 kts | 269° |
| 2026-04-30 06:41 | 13.98051 | 112.64078 | 33917 ft | 490 kts | 269° |
| 2026-04-30 06:42 | 13.98053 | 112.57072 | 33921 ft | 490 kts | 269° |
| 2026-04-30 06:42 | 13.98053 | 112.50063 | 33918 ft | 489 kts | 269° |
| 2026-04-30 06:43 | 13.98050 | 112.43057 | 33914 ft | 490 kts | 269° |
| 2026-04-30 06:43 | 13.98046 | 112.36043 | 33918 ft | 490 kts | 269° |
| 2026-04-30 06:44 | 13.98040 | 112.29028 | 33919 ft | 490 kts | 269° |
| 2026-04-30 06:44 | 13.98032 | 112.22019 | 33918 ft | 490 kts | 269° |
| 2026-04-30 06:45 | 13.98022 | 112.15007 | 33917 ft | 490 kts | 269° |
| 2026-04-30 06:45 | 13.98009 | 112.07980 | 33911 ft | 491 kts | 269° |
| 2026-04-30 06:46 | 13.97995 | 112.00956 | 33917 ft | 491 kts | 269° |
| 2026-04-30 06:46 | 13.97979 | 111.93923 | 33917 ft | 491 kts | 269° |
| 2026-04-30 06:47 | 13.97960 | 111.86892 | 33919 ft | 491 kts | 269° |
| 2026-04-30 06:47 | 13.97940 | 111.79867 | 33917 ft | 491 kts | 269° |
| 2026-04-30 06:48 | 13.97917 | 111.72822 | 33918 ft | 492 kts | 270° |
| 2026-04-30 06:48 | 13.97893 | 111.65784 | 33905 ft | 492 kts | 269° |
| 2026-04-30 06:49 | 13.97867 | 111.58789 | 33915 ft | 492 kts | 269° |
| 2026-04-30 06:49 | 13.97838 | 111.51695 | 33916 ft | 492 kts | 269° |
| 2026-04-30 06:50 | 13.97807 | 111.44643 | 33918 ft | 492 kts | 269° |
| 2026-04-30 06:50 | 13.97770 | 111.37649 | 33925 ft | 492 kts | 269° |
| 2026-04-30 06:51 | 13.97732 | 111.30604 | 33923 ft | 492 kts | 269° |
| 2026-04-30 06:51 | 13.97692 | 111.23563 | 33910 ft | 492 kts | 269° |
| 2026-04-30 06:52 | 13.97651 | 111.16514 | 33920 ft | 492 kts | 269° |
| 2026-04-30 06:52 | 13.97606 | 111.09473 | 33915 ft | 491 kts | 270° |
| 2026-04-30 06:53 | 13.97561 | 111.02447 | 33914 ft | 491 kts | 270° |
| 2026-04-30 06:53 | 13.97514 | 110.95421 | 33920 ft | 491 kts | 270° |
| 2026-04-30 06:54 | 13.97473 | 110.89581 | 33912 ft | 491 kts | 270° |
| 2026-04-30 06:54 | 13.97422 | 110.82547 | 33917 ft | 491 kts | 270° |
| 2026-04-30 06:55 | 13.97367 | 110.75521 | 33925 ft | 492 kts | 271° |
| 2026-04-30 06:55 | 13.97312 | 110.68477 | 33923 ft | 492 kts | 271° |
| 2026-04-30 06:56 | 13.97255 | 110.61420 | 33924 ft | 492 kts | 271° |
| 2026-04-30 06:56 | 13.97196 | 110.54367 | 33927 ft | 492 kts | 270° |
| 2026-04-30 06:57 | 13.97134 | 110.47316 | 33916 ft | 492 kts | 270° |
| 2026-04-30 06:57 | 13.97070 | 110.40255 | 33917 ft | 494 kts | 271° |
| 2026-04-30 06:58 | 13.97004 | 110.33171 | 33928 ft | 495 kts | 271° |
| 2026-04-30 06:58 | 13.96936 | 110.26089 | 33928 ft | 495 kts | 271° |
| 2026-04-30 06:59 | 13.96866 | 110.19005 | 33923 ft | 495 kts | 271° |
| 2026-04-30 06:59 | 13.96794 | 110.11915 | 33923 ft | 495 kts | 271° |
| 2026-04-30 07:00 | 13.96720 | 110.04816 | 33929 ft | 496 kts | 271° |
| 2026-04-30 07:00 | 13.96645 | 109.97709 | 33932 ft | 496 kts | 271° |
| 2026-04-30 07:01 | 13.96586 | 109.90607 | 33928 ft | 496 kts | 271° |
| 2026-04-30 07:01 | 13.96532 | 109.83501 | 33931 ft | 496 kts | 271° |
| 2026-04-30 07:02 | 13.96474 | 109.76388 | 33936 ft | 495 kts | 271° |
| 2026-04-30 07:02 | 13.96411 | 109.69326 | 33932 ft | 493 kts | 271° |
| 2026-04-30 07:03 | 13.96347 | 109.62263 | 33933 ft | 493 kts | 271° |
| 2026-04-30 07:03 | 13.96281 | 109.55246 | 33933 ft | 493 kts | 271° |
| 2026-04-30 07:04 | 13.96216 | 109.48187 | 33940 ft | 493 kts | 271° |
| 2026-04-30 07:04 | 13.96145 | 109.41143 | 33936 ft | 490 kts | 270° |
| 2026-04-30 07:05 | 13.96027 | 109.30665 | 33944 ft | 487 kts | 270° |
| 2026-04-30 07:05 | 13.95950 | 109.23684 | 33948 ft | 488 kts | 270° |
| 2026-04-30 07:06 | 13.95871 | 109.16714 | 33939 ft | 486 kts | 270° |
| 2026-04-30 07:06 | 13.95791 | 109.09732 | 33948 ft | 488 kts | 269° |
| 2026-04-30 07:07 | 13.95714 | 109.02758 | 33947 ft | 488 kts | 270° |
| 2026-04-30 07:07 | 13.95982 | 108.95766 | 33948 ft | 488 kts | 274° |
| 2026-04-30 07:08 | 13.96429 | 108.88799 | 33952 ft | 488 kts | 274° |
| 2026-04-30 07:08 | 13.96832 | 108.81816 | 33956 ft | 489 kts | 273° |
| 2026-04-30 07:09 | 13.97186 | 108.74834 | 33954 ft | 488 kts | 272° |
| 2026-04-30 07:09 | 13.97522 | 108.67852 | 33963 ft | 489 kts | 272° |
| 2026-04-30 07:10 | 13.97855 | 108.60873 | 33958 ft | 488 kts | 272° |
| 2026-04-30 07:10 | 13.98190 | 108.53877 | 33957 ft | 489 kts | 272° |
| 2026-04-30 07:11 | 13.98523 | 108.46900 | 33959 ft | 488 kts | 272° |
| 2026-04-30 07:11 | 13.98855 | 108.39905 | 33951 ft | 490 kts | 272° |
| 2026-04-30 07:12 | 13.99186 | 108.32881 | 33947 ft | 492 kts | 272° |
| 2026-04-30 07:12 | 13.99516 | 108.25833 | 33948 ft | 493 kts | 272° |
| 2026-04-30 07:13 | 13.99844 | 108.18795 | 33949 ft | 492 kts | 272° |
| 2026-04-30 07:13 | 14.00174 | 108.11748 | 33939 ft | 493 kts | 272° |
| 2026-04-30 07:14 | 14.00504 | 108.04706 | 33932 ft | 493 kts | 272° |
| 2026-04-30 07:14 | 14.00680 | 107.97660 | 33924 ft | 492 kts | 268° |
| 2026-04-30 07:15 | 14.00348 | 107.90670 | 33926 ft | 492 kts | 266° |
| 2026-04-30 07:15 | 13.99962 | 107.83643 | 33909 ft | 492 kts | 266° |
| 2026-04-30 07:16 | 13.99650 | 107.76599 | 33906 ft | 492 kts | 267° |
| 2026-04-30 07:16 | 13.99385 | 107.69557 | 33904 ft | 494 kts | 267° |
| 2026-04-30 07:17 | 13.99125 | 107.62454 | 33902 ft | 497 kts | 267° |
| 2026-04-30 07:18 | 13.98724 | 107.51789 | 33889 ft | 497 kts | 267° |
| 2026-04-30 07:18 | 13.98451 | 107.44677 | 33876 ft | 497 kts | 267° |
| 2026-04-30 07:19 | 13.97704 | 107.37628 | 33874 ft | 496 kts | 261° |
| 2026-04-30 07:19 | 13.96636 | 107.30600 | 33881 ft | 497 kts | 260° |
| 2026-04-30 07:20 | 13.95522 | 107.23577 | 33882 ft | 497 kts | 260° |
| 2026-04-30 07:20 | 13.93682 | 107.16740 | 33870 ft | 496 kts | 246° |
| 2026-04-30 07:21 | 13.90007 | 107.10746 | 33872 ft | 497 kts | 233° |
| 2026-04-30 07:21 | 13.85664 | 107.05205 | 33869 ft | 498 kts | 231° |
| 2026-04-30 07:22 | 13.79264 | 106.96790 | 33866 ft | 498 kts | 240° |
| 2026-04-30 07:22 | 13.76742 | 106.90209 | 33865 ft | 495 kts | 259° |
| 2026-04-30 07:23 | 13.75494 | 106.83247 | 33863 ft | 496 kts | 261° |
| 2026-04-30 07:23 | 13.74428 | 106.76233 | 33859 ft | 496 kts | 262° |
| 2026-04-30 07:24 | 13.73358 | 106.69224 | 33855 ft | 496 kts | 261° |
| 2026-04-30 07:24 | 13.72265 | 106.62279 | 33854 ft | 495 kts | 261° |
| 2026-04-30 07:25 | 13.71144 | 106.55251 | 33851 ft | 495 kts | 261° |
| 2026-04-30 07:25 | 13.70026 | 106.48271 | 33843 ft | 495 kts | 261° |
| 2026-04-30 07:26 | 13.68914 | 106.41326 | 33857 ft | 495 kts | 261° |
| 2026-04-30 07:26 | 13.67796 | 106.34352 | 33862 ft | 495 kts | 261° |
| 2026-04-30 07:27 | 13.66677 | 106.27391 | 33858 ft | 491 kts | 261° |
| 2026-04-30 07:27 | 13.65561 | 106.20457 | 33859 ft | 492 kts | 261° |
| 2026-04-30 07:28 | 13.64468 | 106.13520 | 33842 ft | 491 kts | 264° |
| 2026-04-30 07:28 | 13.64278 | 106.06512 | 33855 ft | 491 kts | 271° |
| 2026-04-30 07:29 | 13.64470 | 105.99495 | 33857 ft | 491 kts | 272° |
| 2026-04-30 07:29 | 13.64722 | 105.92466 | 33859 ft | 493 kts | 272° |
| 2026-04-30 07:30 | 13.65077 | 105.81903 | 33863 ft | 493 kts | 272° |
| 2026-04-30 07:31 | 13.65300 | 105.74848 | 33845 ft | 493 kts | 272° |
| 2026-04-30 07:31 | 13.65518 | 105.67800 | 33854 ft | 493 kts | 272° |
| 2026-04-30 07:32 | 13.65733 | 105.60752 | 33846 ft | 493 kts | 272° |
| 2026-04-30 07:32 | 13.65948 | 105.53707 | 33858 ft | 493 kts | 272° |
| 2026-04-30 07:33 | 13.66161 | 105.46665 | 33865 ft | 493 kts | 272° |
| 2026-04-30 07:33 | 13.66373 | 105.39629 | 33864 ft | 493 kts | 272° |
| 2026-04-30 07:34 | 13.66582 | 105.32588 | 33868 ft | 493 kts | 272° |
| 2026-04-30 07:34 | 13.66789 | 105.25535 | 33865 ft | 492 kts | 272° |
| 2026-04-30 07:35 | 13.66993 | 105.18519 | 33859 ft | 491 kts | 272° |
| 2026-04-30 07:35 | 13.67161 | 105.12699 | 33873 ft | 491 kts | 272° |
| 2026-04-30 07:36 | 13.67365 | 105.05686 | 33864 ft | 490 kts | 272° |
| 2026-04-30 07:36 | 13.67565 | 104.98669 | 33863 ft | 491 kts | 272° |
| 2026-04-30 07:37 | 13.67758 | 104.91660 | 33867 ft | 490 kts | 272° |
| 2026-04-30 07:37 | 13.67950 | 104.84664 | 33862 ft | 488 kts | 272° |
| 2026-04-30 07:38 | 13.68141 | 104.77689 | 33878 ft | 488 kts | 272° |
| 2026-04-30 07:38 | 13.68331 | 104.70714 | 33865 ft | 488 kts | 272° |
| 2026-04-30 07:39 | 13.68519 | 104.63739 | 33866 ft | 488 kts | 272° |
| 2026-04-30 07:39 | 13.68704 | 104.56766 | 33879 ft | 488 kts | 272° |
| 2026-04-30 07:40 | 13.68888 | 104.49792 | 33864 ft | 488 kts | 272° |
| 2026-04-30 07:40 | 13.69070 | 104.42806 | 33876 ft | 488 kts | 272° |
| 2026-04-30 07:41 | 13.69249 | 104.35827 | 33881 ft | 488 kts | 272° |
| 2026-04-30 07:41 | 13.69426 | 104.28894 | 33882 ft | 488 kts | 272° |
| 2026-04-30 07:42 | 13.69602 | 104.21917 | 33862 ft | 488 kts | 272° |
| 2026-04-30 07:42 | 13.69775 | 104.14964 | 33867 ft | 485 kts | 272° |
| 2026-04-30 07:43 | 13.69946 | 104.08038 | 33884 ft | 484 kts | 272° |
| 2026-04-30 07:43 | 13.70114 | 104.01122 | 33871 ft | 484 kts | 272° |
| 2026-04-30 07:44 | 13.70281 | 103.94199 | 33875 ft | 484 kts | 272° |
| 2026-04-30 07:44 | 13.70445 | 103.87292 | 33863 ft | 484 kts | 272° |
| 2026-04-30 07:45 | 13.70609 | 103.80372 | 33876 ft | 483 kts | 272° |
| 2026-04-30 07:45 | 13.70770 | 103.73463 | 33864 ft | 483 kts | 272° |
| 2026-04-30 07:46 | 13.70928 | 103.66552 | 33865 ft | 483 kts | 272° |
| 2026-04-30 07:46 | 13.71084 | 103.59651 | 33874 ft | 483 kts | 272° |
| 2026-04-30 07:47 | 13.71238 | 103.52745 | 33875 ft | 483 kts | 272° |
| 2026-04-30 07:47 | 13.71391 | 103.45839 | 33859 ft | 482 kts | 272° |
| 2026-04-30 07:48 | 13.71541 | 103.38974 | 33866 ft | 480 kts | 272° |
| 2026-04-30 07:48 | 13.71689 | 103.32112 | 33860 ft | 480 kts | 272° |
| 2026-04-30 07:49 | 13.71835 | 103.25252 | 33857 ft | 480 kts | 272° |
| 2026-04-30 07:49 | 13.71979 | 103.18392 | 33852 ft | 480 kts | 272° |
| 2026-04-30 07:50 | 13.72121 | 103.11535 | 33860 ft | 479 kts | 272° |
| 2026-04-30 07:50 | 13.72260 | 103.04691 | 33859 ft | 478 kts | 272° |
| 2026-04-30 07:51 | 13.72398 | 102.97870 | 33856 ft | 477 kts | 272° |
| 2026-04-30 07:51 | 13.72534 | 102.91041 | 33861 ft | 477 kts | 272° |
| 2026-04-30 07:52 | 13.72668 | 102.84218 | 33846 ft | 477 kts | 272° |
| 2026-04-30 07:52 | 13.72799 | 102.77436 | 33855 ft | 477 kts | 272° |
| 2026-04-30 07:53 | 13.72930 | 102.70609 | 33859 ft | 478 kts | 272° |
| 2026-04-30 07:53 | 13.73060 | 102.63777 | 33851 ft | 478 kts | 272° |
| 2026-04-30 07:54 | 13.73188 | 102.56935 | 33861 ft | 478 kts | 272° |
| 2026-04-30 07:54 | 13.73307 | 102.50096 | 33854 ft | 478 kts | 272° |
| 2026-04-30 07:55 | 13.73426 | 102.43261 | 33860 ft | 478 kts | 272° |
| 2026-04-30 07:55 | 13.73545 | 102.36425 | 33859 ft | 478 kts | 271° |
| 2026-04-30 07:56 | 13.73661 | 102.29608 | 33854 ft | 477 kts | 271° |
| 2026-04-30 07:56 | 13.73777 | 102.22779 | 33849 ft | 477 kts | 271° |
| 2026-04-30 07:57 | 13.73894 | 102.15965 | 33847 ft | 477 kts | 271° |
| 2026-04-30 07:57 | 13.74003 | 102.09139 | 33858 ft | 477 kts | 271° |
| 2026-04-30 07:58 | 13.74110 | 102.02319 | 33852 ft | 477 kts | 271° |
| 2026-04-30 07:58 | 13.74217 | 101.95507 | 33839 ft | 477 kts | 271° |
| 2026-04-30 07:59 | 13.74323 | 101.88686 | 33845 ft | 477 kts | 271° |
| 2026-04-30 07:59 | 13.74427 | 101.81873 | 33845 ft | 477 kts | 271° |
| 2026-04-30 08:00 | 13.74582 | 101.71649 | 33845 ft | 476 kts | 271° |
| 2026-04-30 08:00 | 13.74678 | 101.64832 | 33849 ft | 476 kts | 271° |
| 2026-04-30 08:01 | 13.74774 | 101.58029 | 33841 ft | 476 kts | 271° |
| 2026-04-30 08:01 | 13.74868 | 101.51272 | 33836 ft | 476 kts | 271° |
| 2026-04-30 08:02 | 13.75007 | 101.41044 | 33851 ft | 476 kts | 271° |
| 2026-04-30 08:03 | 13.75186 | 101.27422 | 33849 ft | 476 kts | 271° |
| 2026-04-30 08:04 | 13.75272 | 101.20608 | 33851 ft | 477 kts | 271° |
| 2026-04-30 08:04 | 13.75357 | 101.13787 | 33843 ft | 477 kts | 271° |
| 2026-04-30 08:05 | 13.75440 | 101.06967 | 33850 ft | 477 kts | 271° |
| 2026-04-30 08:05 | 13.75521 | 101.00145 | 33850 ft | 477 kts | 271° |
| 2026-04-30 08:06 | 13.75601 | 100.93321 | 33856 ft | 477 kts | 271° |
| 2026-04-30 08:06 | 13.75678 | 100.86508 | 33851 ft | 477 kts | 271° |
| 2026-04-30 08:07 | 13.75758 | 100.79694 | 33859 ft | 476 kts | 271° |
| 2026-04-30 08:07 | 13.75960 | 100.72887 | 33860 ft | 476 kts | 276° |
| 2026-04-30 08:08 | 13.76948 | 100.66146 | 33860 ft | 476 kts | 279° |
| 2026-04-30 08:08 | 13.78078 | 100.59475 | 33858 ft | 476 kts | 280° |
| 2026-04-30 08:09 | 13.79239 | 100.52766 | 33850 ft | 475 kts | 279° |
| 2026-04-30 08:09 | 13.80384 | 100.46077 | 33862 ft | 475 kts | 279° |
| 2026-04-30 08:10 | 13.81519 | 100.39390 | 33858 ft | 475 kts | 279° |
| 2026-04-30 08:10 | 13.82651 | 100.32701 | 33852 ft | 475 kts | 279° |
| 2026-04-30 08:11 | 13.83779 | 100.26014 | 33854 ft | 474 kts | 279° |
| 2026-04-30 08:11 | 13.84909 | 100.19315 | 33855 ft | 474 kts | 279° |
| 2026-04-30 08:12 | 13.86034 | 100.12632 | 33853 ft | 474 kts | 279° |
| 2026-04-30 08:12 | 13.87156 | 100.05954 | 33831 ft | 474 kts | 279° |
| 2026-04-30 08:13 | 13.88277 | 99.99275 | 33840 ft | 473 kts | 279° |
| 2026-04-30 08:13 | 13.89396 | 99.92594 | 33825 ft | 473 kts | 279° |
| 2026-04-30 08:14 | 13.90512 | 99.85919 | 33833 ft | 473 kts | 279° |
| 2026-04-30 08:14 | 13.91628 | 99.79238 | 33821 ft | 474 kts | 279° |
| 2026-04-30 08:15 | 13.92741 | 99.72557 | 33827 ft | 474 kts | 279° |
| 2026-04-30 08:15 | 13.93854 | 99.65863 | 33819 ft | 474 kts | 279° |
| 2026-04-30 08:16 | 13.94964 | 99.59177 | 33820 ft | 474 kts | 279° |
| 2026-04-30 08:16 | 13.96073 | 99.52486 | 33838 ft | 474 kts | 279° |
| 2026-04-30 08:17 | 13.97172 | 99.45844 | 33835 ft | 474 kts | 279° |
| 2026-04-30 08:17 | 13.98278 | 99.39149 | 33835 ft | 475 kts | 279° |
| 2026-04-30 08:18 | 13.99384 | 99.32449 | 33832 ft | 475 kts | 279° |
| 2026-04-30 08:18 | 14.00487 | 99.25745 | 33845 ft | 475 kts | 278° |
| 2026-04-30 08:19 | 14.01587 | 99.19040 | 33855 ft | 475 kts | 278° |
| 2026-04-30 08:19 | 14.02685 | 99.12338 | 33843 ft | 475 kts | 278° |
| 2026-04-30 08:20 | 14.03783 | 99.05641 | 33856 ft | 474 kts | 278° |
| 2026-04-30 08:20 | 14.04694 | 99.00075 | 33859 ft | 473 kts | 278° |
| 2026-04-30 08:21 | 14.05410 | 98.93345 | 33861 ft | 473 kts | 274° |
| 2026-04-30 08:21 | 14.05875 | 98.86592 | 33863 ft | 473 kts | 273° |
| 2026-04-30 08:22 | 14.06306 | 98.79830 | 33866 ft | 473 kts | 273° |
| 2026-04-30 08:22 | 14.06735 | 98.73068 | 33870 ft | 473 kts | 273° |
| 2026-04-30 08:23 | 14.07168 | 98.66317 | 33869 ft | 473 kts | 273° |
| 2026-04-30 08:23 | 14.07602 | 98.59557 | 33866 ft | 472 kts | 273° |
| 2026-04-30 08:24 | 14.08034 | 98.52803 | 33876 ft | 473 kts | 273° |
| 2026-04-30 08:24 | 14.08463 | 98.46053 | 33861 ft | 473 kts | 273° |
| 2026-04-30 08:25 | 14.08889 | 98.39293 | 33864 ft | 473 kts | 272° |
| 2026-04-30 08:25 | 14.09315 | 98.32527 | 33857 ft | 473 kts | 272° |
| 2026-04-30 08:26 | 14.09739 | 98.25796 | 33855 ft | 470 kts | 272° |
| 2026-04-30 08:26 | 14.10530 | 98.19117 | 33849 ft | 471 kts | 281° |
| 2026-04-30 08:27 | 14.12063 | 98.12556 | 33833 ft | 472 kts | 282° |
| 2026-04-30 08:27 | 14.13713 | 98.06018 | 33846 ft | 472 kts | 283° |
| 2026-04-30 08:28 | 14.15374 | 97.99476 | 33839 ft | 472 kts | 283° |
| 2026-04-30 08:28 | 14.17018 | 97.92940 | 33842 ft | 472 kts | 282° |
| 2026-04-30 08:29 | 14.18656 | 97.86391 | 33846 ft | 472 kts | 282° |
| 2026-04-30 08:29 | 14.20287 | 97.79851 | 33843 ft | 472 kts | 282° |
| 2026-04-30 08:30 | 14.21918 | 97.73309 | 33842 ft | 472 kts | 282° |
| 2026-04-30 08:30 | 14.23550 | 97.66756 | 33846 ft | 471 kts | 282° |
| 2026-04-30 08:31 | 14.25177 | 97.60215 | 33844 ft | 471 kts | 282° |
| 2026-04-30 08:31 | 14.26793 | 97.53710 | 33845 ft | 471 kts | 282° |
| 2026-04-30 08:32 | 14.28415 | 97.47172 | 33841 ft | 471 kts | 282° |
| 2026-04-30 08:32 | 14.30034 | 97.40637 | 33844 ft | 471 kts | 282° |
| 2026-04-30 08:33 | 14.31654 | 97.34094 | 33842 ft | 471 kts | 282° |
| 2026-04-30 08:33 | 14.33271 | 97.27553 | 33847 ft | 471 kts | 282° |
| 2026-04-30 08:34 | 14.34896 | 97.20967 | 33842 ft | 471 kts | 282° |
| 2026-04-30 08:34 | 14.36498 | 97.14471 | 33842 ft | 471 kts | 282° |
| 2026-04-30 08:35 | 14.38108 | 97.07934 | 33846 ft | 471 kts | 282° |
| 2026-04-30 08:35 | 14.39717 | 97.01392 | 33848 ft | 470 kts | 282° |
| 2026-04-30 08:36 | 14.41324 | 96.94848 | 33849 ft | 470 kts | 282° |
| 2026-04-30 08:36 | 14.42930 | 96.88303 | 33848 ft | 471 kts | 282° |
| 2026-04-30 08:37 | 14.44535 | 96.81750 | 33852 ft | 471 kts | 282° |
| 2026-04-30 08:37 | 14.46136 | 96.75209 | 33852 ft | 471 kts | 282° |
| 2026-04-30 08:38 | 14.47737 | 96.68657 | 33853 ft | 471 kts | 282° |
| 2026-04-30 08:38 | 14.49337 | 96.62102 | 33854 ft | 470 kts | 282° |
| 2026-04-30 08:39 | 14.50929 | 96.55573 | 33850 ft | 469 kts | 282° |
| 2026-04-30 08:39 | 14.52521 | 96.49032 | 33856 ft | 469 kts | 282° |
| 2026-04-30 08:40 | 14.54110 | 96.42497 | 33856 ft | 470 kts | 281° |
| 2026-04-30 08:40 | 14.55700 | 96.35948 | 33859 ft | 470 kts | 281° |
| 2026-04-30 08:41 | 14.57289 | 96.29396 | 33861 ft | 470 kts | 281° |
| 2026-04-30 08:41 | 14.58876 | 96.22845 | 33857 ft | 470 kts | 281° |
| 2026-04-30 08:42 | 14.60461 | 96.16292 | 33856 ft | 470 kts | 281° |
| 2026-04-30 08:42 | 14.62045 | 96.09733 | 33857 ft | 470 kts | 281° |
| 2026-04-30 08:43 | 14.63626 | 96.03184 | 33859 ft | 470 kts | 281° |
| 2026-04-30 08:43 | 14.65203 | 95.96637 | 33858 ft | 469 kts | 281° |
| 2026-04-30 08:44 | 14.66776 | 95.90097 | 33859 ft | 469 kts | 281° |
| 2026-04-30 08:44 | 14.68347 | 95.83562 | 33859 ft | 469 kts | 281° |
| 2026-04-30 08:45 | 14.69918 | 95.77014 | 33859 ft | 469 kts | 281° |
| 2026-04-30 08:45 | 14.71475 | 95.70517 | 33864 ft | 469 kts | 281° |
| 2026-04-30 08:46 | 14.73042 | 95.63974 | 33858 ft | 468 kts | 281° |
| 2026-04-30 08:46 | 14.74602 | 95.57449 | 33863 ft | 468 kts | 281° |
| 2026-04-30 08:47 | 14.76159 | 95.50925 | 33861 ft | 468 kts | 281° |
| 2026-04-30 08:47 | 14.77717 | 95.44390 | 33863 ft | 468 kts | 281° |
| 2026-04-30 08:48 | 14.79272 | 95.37860 | 33864 ft | 468 kts | 281° |
| 2026-04-30 08:48 | 14.80821 | 95.31345 | 33864 ft | 468 kts | 281° |
| 2026-04-30 08:49 | 14.82376 | 95.24795 | 33865 ft | 469 kts | 281° |
| 2026-04-30 08:49 | 14.83931 | 95.18240 | 33865 ft | 469 kts | 281° |
| 2026-04-30 08:50 | 14.85483 | 95.11689 | 33866 ft | 469 kts | 281° |
| 2026-04-30 08:50 | 14.87033 | 95.05137 | 33868 ft | 469 kts | 281° |
| 2026-04-30 08:51 | 14.88576 | 94.98605 | 33872 ft | 469 kts | 281° |
| 2026-04-30 08:51 | 14.90129 | 94.92020 | 33871 ft | 471 kts | 281° |
| 2026-04-30 08:52 | 14.91680 | 94.85438 | 33867 ft | 471 kts | 281° |
| 2026-04-30 08:52 | 14.93228 | 94.78858 | 33864 ft | 471 kts | 281° |
| 2026-04-30 08:53 | 14.94778 | 94.72261 | 33868 ft | 471 kts | 281° |
| 2026-04-30 08:53 | 14.96313 | 94.65719 | 33869 ft | 471 kts | 281° |
| 2026-04-30 08:54 | 14.97854 | 94.59142 | 33868 ft | 471 kts | 281° |
| 2026-04-30 08:54 | 14.99398 | 94.52542 | 33871 ft | 471 kts | 280° |
| 2026-04-30 08:55 | 15.00938 | 94.45951 | 33869 ft | 471 kts | 280° |
| 2026-04-30 08:55 | 15.02474 | 94.39367 | 33869 ft | 471 kts | 280° |
| 2026-04-30 08:56 | 15.04011 | 94.32773 | 33870 ft | 471 kts | 280° |
| 2026-04-30 08:56 | 15.05542 | 94.26191 | 33867 ft | 471 kts | 280° |
| 2026-04-30 08:57 | 15.07076 | 94.19588 | 33869 ft | 471 kts | 280° |
| 2026-04-30 08:57 | 15.08603 | 94.13010 | 33872 ft | 470 kts | 280° |
| 2026-04-30 08:58 | 15.10126 | 94.06439 | 33875 ft | 469 kts | 280° |
| 2026-04-30 08:58 | 15.11646 | 93.99870 | 33876 ft | 469 kts | 280° |
| 2026-04-30 08:59 | 15.13164 | 93.93298 | 33881 ft | 470 kts | 280° |
| 2026-04-30 08:59 | 15.14682 | 93.86722 | 33873 ft | 469 kts | 280° |
| 2026-04-30 09:00 | 15.16199 | 93.80139 | 33875 ft | 469 kts | 280° |
| 2026-04-30 09:00 | 15.17707 | 93.73584 | 33875 ft | 468 kts | 280° |
| 2026-04-30 09:01 | 15.19215 | 93.67022 | 33876 ft | 468 kts | 280° |
| 2026-04-30 09:01 | 15.20719 | 93.60468 | 33877 ft | 468 kts | 280° |
| 2026-04-30 09:02 | 15.22720 | 93.51733 | 33883 ft | 468 kts | 280° |
| 2026-04-30 09:02 | 15.24220 | 93.45176 | 33881 ft | 468 kts | 280° |
| 2026-04-30 09:03 | 15.25720 | 93.38606 | 33884 ft | 468 kts | 280° |
| 2026-04-30 09:03 | 15.27216 | 93.32045 | 33877 ft | 468 kts | 280° |
| 2026-04-30 09:04 | 15.28713 | 93.25474 | 33877 ft | 468 kts | 280° |
| 2026-04-30 09:04 | 15.30205 | 93.18912 | 33887 ft | 468 kts | 280° |
| 2026-04-30 09:05 | 15.31698 | 93.12341 | 33881 ft | 468 kts | 280° |
| 2026-04-30 09:05 | 15.33187 | 93.05775 | 33884 ft | 468 kts | 280° |
| 2026-04-30 09:06 | 15.34677 | 92.99193 | 33880 ft | 470 kts | 281° |
| 2026-04-30 09:06 | 15.36169 | 92.92592 | 33882 ft | 471 kts | 281° |
| 2026-04-30 09:07 | 15.37656 | 92.86009 | 33876 ft | 471 kts | 280° |
| 2026-04-30 09:07 | 15.39148 | 92.79393 | 33887 ft | 471 kts | 280° |
| 2026-04-30 09:08 | 15.40635 | 92.72789 | 33887 ft | 471 kts | 280° |
| 2026-04-30 09:08 | 15.42121 | 92.66180 | 33882 ft | 471 kts | 280° |
| 2026-04-30 09:09 | 15.43630 | 92.59567 | 33884 ft | 472 kts | 281° |
| 2026-04-30 09:09 | 15.45269 | 92.52977 | 33884 ft | 473 kts | 282° |
| 2026-04-30 09:10 | 15.46936 | 92.46365 | 33881 ft | 473 kts | 282° |
| 2026-04-30 09:10 | 15.48580 | 92.39757 | 33888 ft | 473 kts | 282° |
| 2026-04-30 09:11 | 15.50208 | 92.33157 | 33877 ft | 473 kts | 282° |
| 2026-04-30 09:11 | 15.51820 | 92.26595 | 33877 ft | 472 kts | 282° |
| 2026-04-30 09:12 | 15.53440 | 92.19998 | 33879 ft | 472 kts | 282° |
| 2026-04-30 09:12 | 15.55056 | 92.13407 | 33880 ft | 471 kts | 282° |
| 2026-04-30 09:13 | 15.56672 | 92.06811 | 33878 ft | 471 kts | 282° |
| 2026-04-30 09:13 | 15.58284 | 92.00222 | 33883 ft | 471 kts | 282° |
| 2026-04-30 09:14 | 15.59888 | 91.93627 | 33882 ft | 471 kts | 281° |
| 2026-04-30 09:14 | 15.61468 | 91.87037 | 33881 ft | 469 kts | 281° |
| 2026-04-30 09:15 | 15.63037 | 91.80490 | 33884 ft | 467 kts | 281° |
| 2026-04-30 09:15 | 15.64603 | 91.73961 | 33887 ft | 466 kts | 281° |
| 2026-04-30 09:16 | 15.66166 | 91.67442 | 33884 ft | 466 kts | 281° |
| 2026-04-30 09:16 | 15.67727 | 91.60921 | 33884 ft | 466 kts | 281° |
| 2026-04-30 09:17 | 15.69287 | 91.54394 | 33883 ft | 466 kts | 281° |
| 2026-04-30 09:17 | 15.70845 | 91.47874 | 33884 ft | 465 kts | 281° |
| 2026-04-30 09:18 | 15.72396 | 91.41370 | 33888 ft | 465 kts | 281° |
| 2026-04-30 09:18 | 15.73946 | 91.34857 | 33884 ft | 465 kts | 281° |
| 2026-04-30 09:19 | 15.75495 | 91.28345 | 33888 ft | 465 kts | 281° |
| 2026-04-30 09:19 | 15.77041 | 91.21831 | 33879 ft | 465 kts | 281° |
| 2026-04-30 09:20 | 15.78587 | 91.15312 | 33874 ft | 465 kts | 281° |
| 2026-04-30 09:20 | 15.80130 | 91.08792 | 33872 ft | 467 kts | 281° |
| 2026-04-30 09:21 | 15.81680 | 91.02238 | 33881 ft | 467 kts | 281° |
| 2026-04-30 09:21 | 15.83227 | 90.95687 | 33878 ft | 467 kts | 281° |
| 2026-04-30 09:22 | 15.84765 | 90.89166 | 33883 ft | 467 kts | 281° |
| 2026-04-30 09:22 | 15.86308 | 90.82610 | 33887 ft | 467 kts | 281° |
| 2026-04-30 09:23 | 15.87847 | 90.76062 | 33885 ft | 467 kts | 281° |
| 2026-04-30 09:23 | 15.89387 | 90.69502 | 33890 ft | 467 kts | 281° |
| 2026-04-30 09:24 | 15.90926 | 90.62939 | 33882 ft | 468 kts | 281° |
| 2026-04-30 09:24 | 15.92463 | 90.56374 | 33895 ft | 468 kts | 281° |
| 2026-04-30 09:25 | 15.93998 | 90.49805 | 33891 ft | 468 kts | 281° |
| 2026-04-30 09:25 | 15.95531 | 90.43238 | 33889 ft | 468 kts | 281° |
| 2026-04-30 09:26 | 15.97060 | 90.36675 | 33886 ft | 468 kts | 281° |
| 2026-04-30 09:26 | 15.98591 | 90.30097 | 33894 ft | 469 kts | 281° |
| 2026-04-30 09:27 | 16.00123 | 90.23508 | 33890 ft | 469 kts | 281° |
| 2026-04-30 09:27 | 16.01654 | 90.16915 | 33888 ft | 469 kts | 281° |
| 2026-04-30 09:28 | 16.03219 | 90.10335 | 33887 ft | 469 kts | 281° |
| 2026-04-30 09:28 | 16.04816 | 90.03752 | 33885 ft | 469 kts | 281° |
| 2026-04-30 09:29 | 16.06406 | 89.97175 | 33883 ft | 469 kts | 281° |
| 2026-04-30 09:29 | 16.07991 | 89.90589 | 33887 ft | 469 kts | 281° |
| 2026-04-30 09:30 | 16.09567 | 89.84016 | 33883 ft | 469 kts | 281° |
| 2026-04-30 09:30 | 16.11143 | 89.77436 | 33884 ft | 469 kts | 281° |
| 2026-04-30 09:31 | 16.12715 | 89.70864 | 33887 ft | 469 kts | 281° |
| 2026-04-30 09:31 | 16.14286 | 89.64286 | 33884 ft | 469 kts | 281° |
| 2026-04-30 09:32 | 16.15855 | 89.57708 | 33884 ft | 469 kts | 281° |
| 2026-04-30 09:32 | 16.17423 | 89.51127 | 33882 ft | 469 kts | 281° |
| 2026-04-30 09:33 | 16.18989 | 89.44542 | 33881 ft | 469 kts | 281° |
| 2026-04-30 09:33 | 16.20552 | 89.37958 | 33880 ft | 469 kts | 281° |
| 2026-04-30 09:34 | 16.22114 | 89.31374 | 33879 ft | 469 kts | 281° |
| 2026-04-30 09:34 | 16.23672 | 89.24796 | 33878 ft | 468 kts | 281° |
| 2026-04-30 09:35 | 16.25228 | 89.18208 | 33881 ft | 467 kts | 281° |
| 2026-04-30 09:35 | 16.26777 | 89.11649 | 33874 ft | 467 kts | 281° |
| 2026-04-30 09:36 | 16.28337 | 89.05083 | 33875 ft | 467 kts | 281° |
| 2026-04-30 09:36 | 16.29937 | 88.98531 | 33872 ft | 467 kts | 282° |
| 2026-04-30 09:37 | 16.31531 | 88.92017 | 33874 ft | 467 kts | 282° |
| 2026-04-30 09:37 | 16.33128 | 88.85459 | 33867 ft | 467 kts | 281° |
| 2026-04-30 09:38 | 16.34717 | 88.78912 | 33894 ft | 466 kts | 281° |
| 2026-04-30 09:38 | 16.36298 | 88.72383 | 33865 ft | 464 kts | 281° |
| 2026-04-30 09:39 | 16.37873 | 88.65864 | 33865 ft | 464 kts | 281° |
| 2026-04-30 09:39 | 16.39447 | 88.59342 | 33861 ft | 464 kts | 281° |
| 2026-04-30 09:40 | 16.41019 | 88.52820 | 33865 ft | 464 kts | 281° |
| 2026-04-30 09:40 | 16.42587 | 88.46306 | 33847 ft | 464 kts | 281° |
| 2026-04-30 09:41 | 16.44157 | 88.39773 | 33857 ft | 465 kts | 281° |
| 2026-04-30 09:41 | 16.45725 | 88.33243 | 33857 ft | 465 kts | 281° |
| 2026-04-30 09:42 | 16.47291 | 88.26710 | 33850 ft | 465 kts | 281° |
| 2026-04-30 09:42 | 16.48857 | 88.20167 | 33850 ft | 465 kts | 281° |
| 2026-04-30 09:43 | 16.50419 | 88.13631 | 33845 ft | 465 kts | 281° |
| 2026-04-30 09:43 | 16.51716 | 88.08195 | 33856 ft | 465 kts | 281° |
| 2026-04-30 09:44 | 16.53271 | 88.01677 | 33844 ft | 463 kts | 281° |
| 2026-04-30 09:44 | 16.54819 | 87.95173 | 33840 ft | 462 kts | 281° |
| 2026-04-30 09:45 | 16.56365 | 87.88664 | 33839 ft | 462 kts | 281° |
| 2026-04-30 09:45 | 16.57909 | 87.82156 | 33832 ft | 462 kts | 281° |
| 2026-04-30 09:46 | 16.59451 | 87.75649 | 33834 ft | 462 kts | 281° |
| 2026-04-30 09:46 | 16.60991 | 87.69141 | 33836 ft | 463 kts | 281° |
| 2026-04-30 09:47 | 16.62531 | 87.62618 | 33832 ft | 463 kts | 281° |
| 2026-04-30 09:47 | 16.64068 | 87.56099 | 33831 ft | 463 kts | 281° |
| 2026-04-30 09:48 | 16.65606 | 87.49572 | 33829 ft | 463 kts | 281° |
| 2026-04-30 09:48 | 16.67140 | 87.43049 | 33829 ft | 463 kts | 281° |
| 2026-04-30 09:49 | 16.68673 | 87.36517 | 33832 ft | 463 kts | 281° |
| 2026-04-30 09:49 | 16.70206 | 87.29977 | 33822 ft | 465 kts | 281° |
| 2026-04-30 09:50 | 16.71741 | 87.23424 | 33822 ft | 465 kts | 281° |
| 2026-04-30 09:50 | 16.73274 | 87.16872 | 33822 ft | 465 kts | 281° |
| 2026-04-30 09:51 | 16.74814 | 87.10324 | 33819 ft | 465 kts | 282° |
| 2026-04-30 09:51 | 16.76377 | 87.03782 | 33816 ft | 465 kts | 282° |
| 2026-04-30 09:52 | 16.77939 | 86.97240 | 33819 ft | 465 kts | 282° |
| 2026-04-30 09:52 | 16.79497 | 86.90687 | 33811 ft | 465 kts | 282° |
| 2026-04-30 09:53 | 16.81038 | 86.84187 | 33811 ft | 464 kts | 282° |
| 2026-04-30 09:53 | 16.82588 | 86.77642 | 33805 ft | 464 kts | 282° |
| 2026-04-30 09:54 | 16.84134 | 86.71103 | 33811 ft | 464 kts | 282° |
| 2026-04-30 09:54 | 16.85679 | 86.64554 | 33808 ft | 465 kts | 282° |
| 2026-04-30 09:55 | 16.87223 | 86.58005 | 33811 ft | 465 kts | 282° |
| 2026-04-30 09:55 | 16.88765 | 86.51450 | 33805 ft | 465 kts | 282° |
| 2026-04-30 09:56 | 16.90305 | 86.44896 | 33800 ft | 466 kts | 282° |
| 2026-04-30 09:56 | 16.91849 | 86.38318 | 33803 ft | 466 kts | 282° |
| 2026-04-30 09:57 | 16.93389 | 86.31742 | 33799 ft | 466 kts | 282° |
| 2026-04-30 09:57 | 16.94927 | 86.25168 | 33800 ft | 466 kts | 282° |
| 2026-04-30 09:58 | 16.96459 | 86.18610 | 33801 ft | 466 kts | 282° |
| 2026-04-30 09:58 | 16.97997 | 86.12009 | 33799 ft | 468 kts | 282° |
| 2026-04-30 09:59 | 17.01072 | 85.98792 | 33809 ft | 468 kts | 282° |
| 2026-04-30 10:00 | 17.03368 | 85.88901 | 33800 ft | 466 kts | 282° |
| 2026-04-30 10:01 | 17.05651 | 85.79038 | 33792 ft | 466 kts | 282° |
| 2026-04-30 10:02 | 17.07922 | 85.69203 | 33785 ft | 466 kts | 282° |
| 2026-04-30 10:02 | 17.09440 | 85.62619 | 33788 ft | 466 kts | 282° |
| 2026-04-30 10:03 | 17.10954 | 85.56037 | 33787 ft | 466 kts | 282° |
| 2026-04-30 10:03 | 17.12468 | 85.49447 | 33787 ft | 466 kts | 282° |
| 2026-04-30 10:04 | 17.13978 | 85.42866 | 33784 ft | 466 kts | 282° |
| 2026-04-30 10:04 | 17.15484 | 85.36295 | 33780 ft | 464 kts | 282° |
| 2026-04-30 10:05 | 17.16983 | 85.29743 | 33781 ft | 463 kts | 282° |
| 2026-04-30 10:05 | 17.18524 | 85.23206 | 33781 ft | 463 kts | 283° |
| 2026-04-30 10:06 | 17.20092 | 85.16678 | 33780 ft | 463 kts | 283° |
| 2026-04-30 10:06 | 17.21654 | 85.10143 | 33774 ft | 463 kts | 283° |
| 2026-04-30 10:07 | 17.23211 | 85.03596 | 33780 ft | 463 kts | 282° |
| 2026-04-30 10:07 | 17.24761 | 84.97050 | 33775 ft | 463 kts | 282° |
| 2026-04-30 10:08 | 17.26309 | 84.90506 | 33770 ft | 463 kts | 282° |
| 2026-04-30 10:08 | 17.27854 | 84.83964 | 33769 ft | 463 kts | 282° |
| 2026-04-30 10:09 | 17.29399 | 84.77414 | 33772 ft | 463 kts | 282° |
| 2026-04-30 10:09 | 17.30941 | 84.70866 | 33773 ft | 463 kts | 282° |
| 2026-04-30 10:10 | 17.32482 | 84.64311 | 33770 ft | 464 kts | 282° |
| 2026-04-30 10:10 | 17.34018 | 84.57754 | 33769 ft | 469 kts | 283° |
| 2026-04-30 10:11 | 17.35576 | 84.51114 | 33763 ft | 470 kts | 283° |
| 2026-04-30 10:11 | 17.37168 | 84.44479 | 33763 ft | 470 kts | 284° |
| 2026-04-30 10:12 | 17.38809 | 84.37859 | 33762 ft | 470 kts | 284° |
| 2026-04-30 10:12 | 17.40448 | 84.31228 | 33757 ft | 470 kts | 284° |
| 2026-04-30 10:13 | 17.42075 | 84.24599 | 33754 ft | 471 kts | 285° |
| 2026-04-30 10:13 | 17.43704 | 84.17944 | 33754 ft | 472 kts | 285° |
| 2026-04-30 10:14 | 17.45330 | 84.11284 | 33752 ft | 472 kts | 285° |
| 2026-04-30 10:14 | 17.47767 | 84.01287 | 33749 ft | 472 kts | 285° |
| 2026-04-30 10:15 | 17.49390 | 83.94615 | 33746 ft | 472 kts | 285° |
| 2026-04-30 10:15 | 17.51023 | 83.87961 | 33748 ft | 472 kts | 287° |
| 2026-04-30 10:16 | 17.52718 | 83.81322 | 33744 ft | 471 kts | 287° |
| 2026-04-30 10:17 | 17.55250 | 83.71429 | 34279 ft | 465 kts | 287° |
| 2026-04-30 10:17 | 17.56912 | 83.64880 | 34564 ft | 464 kts | 287° |
| 2026-04-30 10:17 | 17.57741 | 83.61603 | 34707 ft | 464 kts | 287° |
| 2026-04-30 10:18 | 17.58566 | 83.58338 | 34857 ft | 464 kts | 287° |
| 2026-04-30 10:18 | 17.59392 | 83.55070 | 34971 ft | 464 kts | 287° |
| 2026-04-30 10:18 | 17.60215 | 83.51808 | 35101 ft | 463 kts | 287° |
| 2026-04-30 10:19 | 17.61859 | 83.45285 | 35349 ft | 463 kts | 287° |
| 2026-04-30 10:19 | 17.63503 | 83.38759 | 35555 ft | 463 kts | 287° |
| 2026-04-30 10:19 | 17.64312 | 83.35543 | 35698 ft | 462 kts | 287° |
| 2026-04-30 10:20 | 17.65131 | 83.32284 | 35824 ft | 461 kts | 287° |
| 2026-04-30 10:20 | 17.66764 | 83.25781 | 36027 ft | 461 kts | 287° |
| 2026-04-30 10:20 | 17.67618 | 83.22535 | 36119 ft | 460 kts | 290° |
| 2026-04-30 10:21 | 17.68610 | 83.19343 | 36232 ft | 459 kts | 291° |
| 2026-04-30 10:21 | 17.69669 | 83.16189 | 36315 ft | 459 kts | 292° |
| 2026-04-30 10:21 | 17.71821 | 83.09876 | 36429 ft | 460 kts | 292° |
| 2026-04-30 10:22 | 17.73920 | 83.03532 | 36605 ft | 460 kts | 292° |
| 2026-04-30 10:22 | 17.75977 | 82.97174 | 36808 ft | 460 kts | 291° |
| 2026-04-30 10:23 | 17.78018 | 82.90822 | 36985 ft | 459 kts | 291° |
| 2026-04-30 10:23 | 17.80055 | 82.84479 | 37163 ft | 459 kts | 291° |
| 2026-04-30 10:24 | 17.82094 | 82.78130 | 37275 ft | 459 kts | 291° |
| 2026-04-30 10:24 | 17.83110 | 82.74963 | 37378 ft | 457 kts | 291° |
| 2026-04-30 10:24 | 17.84120 | 82.71814 | 37502 ft | 456 kts | 291° |
| 2026-04-30 10:25 | 17.86135 | 82.65526 | 37631 ft | 457 kts | 291° |
| 2026-04-30 10:25 | 17.88170 | 82.59165 | 37797 ft | 457 kts | 291° |
| 2026-04-30 10:26 | 17.89851 | 82.53905 | 37833 ft | 458 kts | 291° |
| 2026-04-30 10:26 | 17.92225 | 82.46475 | 37831 ft | 460 kts | 291° |
| 2026-04-30 10:27 | 17.93916 | 82.41172 | 37832 ft | 462 kts | 291° |
| 2026-04-30 10:27 | 17.95952 | 82.34773 | 37823 ft | 461 kts | 291° |
| 2026-04-30 10:28 | 17.97978 | 82.28394 | 37822 ft | 460 kts | 291° |
| 2026-04-30 10:28 | 18.00001 | 82.22030 | 37818 ft | 459 kts | 291° |
| 2026-04-30 10:29 | 18.02021 | 82.15664 | 37826 ft | 459 kts | 291° |
| 2026-04-30 10:29 | 18.04038 | 82.09300 | 37807 ft | 459 kts | 291° |
| 2026-04-30 10:30 | 18.06056 | 82.02923 | 37799 ft | 459 kts | 291° |
| 2026-04-30 10:30 | 18.08084 | 81.96554 | 37811 ft | 460 kts | 292° |
| 2026-04-30 10:31 | 18.10174 | 81.90195 | 37790 ft | 460 kts | 292° |
| 2026-04-30 10:31 | 18.12251 | 81.83886 | 37796 ft | 459 kts | 292° |
| 2026-04-30 10:32 | 18.14332 | 81.77535 | 37774 ft | 459 kts | 292° |
| 2026-04-30 10:32 | 18.16411 | 81.71189 | 37775 ft | 459 kts | 292° |
| 2026-04-30 10:33 | 18.18482 | 81.64837 | 37756 ft | 459 kts | 292° |
| 2026-04-30 10:33 | 18.20554 | 81.58473 | 37777 ft | 461 kts | 292° |
| 2026-04-30 10:34 | 18.22632 | 81.52084 | 37778 ft | 463 kts | 292° |
| 2026-04-30 10:34 | 18.24719 | 81.45664 | 37794 ft | 463 kts | 292° |
| 2026-04-30 10:35 | 18.26798 | 81.39257 | 37793 ft | 463 kts | 292° |
| 2026-04-30 10:35 | 18.28874 | 81.32850 | 37802 ft | 463 kts | 292° |
| 2026-04-30 10:36 | 18.30949 | 81.26441 | 37791 ft | 463 kts | 292° |
| 2026-04-30 10:36 | 18.33022 | 81.20029 | 37804 ft | 464 kts | 292° |
| 2026-04-30 10:37 | 18.35100 | 81.13596 | 37801 ft | 464 kts | 292° |
| 2026-04-30 10:37 | 18.37174 | 81.07163 | 37802 ft | 464 kts | 292° |
| 2026-04-30 10:38 | 18.39245 | 81.00733 | 37801 ft | 464 kts | 292° |
| 2026-04-30 10:38 | 18.41317 | 80.94291 | 37801 ft | 464 kts | 292° |
| 2026-04-30 10:39 | 18.43384 | 80.87857 | 37802 ft | 464 kts | 292° |
| 2026-04-30 10:39 | 18.45457 | 80.81398 | 37805 ft | 467 kts | 292° |
| 2026-04-30 10:40 | 18.47534 | 80.74918 | 37807 ft | 467 kts | 292° |
| 2026-04-30 10:40 | 18.49593 | 80.68480 | 37811 ft | 467 kts | 292° |
| 2026-04-30 10:41 | 18.51664 | 80.62002 | 37807 ft | 466 kts | 292° |
| 2026-04-30 10:41 | 18.53727 | 80.55525 | 37803 ft | 467 kts | 291° |
| 2026-04-30 10:42 | 18.55693 | 80.49004 | 37804 ft | 468 kts | 290° |
| 2026-04-30 10:42 | 18.57635 | 80.42433 | 37797 ft | 469 kts | 291° |
| 2026-04-30 10:43 | 18.59588 | 80.35870 | 37798 ft | 469 kts | 291° |
| 2026-04-30 10:43 | 18.61550 | 80.29314 | 37785 ft | 469 kts | 291° |
| 2026-04-30 10:44 | 18.63512 | 80.22758 | 37785 ft | 469 kts | 291° |
| 2026-04-30 10:44 | 18.65473 | 80.16195 | 37775 ft | 469 kts | 290° |
| 2026-04-30 10:45 | 18.67429 | 80.09638 | 37771 ft | 469 kts | 290° |
| 2026-04-30 10:45 | 18.69385 | 80.03072 | 37772 ft | 469 kts | 290° |
| 2026-04-30 10:46 | 18.71337 | 79.96506 | 37782 ft | 469 kts | 290° |
| 2026-04-30 10:46 | 18.73288 | 79.89937 | 37766 ft | 469 kts | 290° |
| 2026-04-30 10:47 | 18.75238 | 79.83364 | 37769 ft | 469 kts | 290° |
| 2026-04-30 10:47 | 18.77182 | 79.76799 | 37769 ft | 469 kts | 290° |
| 2026-04-30 10:48 | 18.79127 | 79.70224 | 37766 ft | 470 kts | 290° |
| 2026-04-30 10:48 | 18.81073 | 79.63635 | 37765 ft | 470 kts | 290° |
| 2026-04-30 10:49 | 18.83013 | 79.57056 | 37783 ft | 470 kts | 290° |
| 2026-04-30 10:49 | 18.84952 | 79.50471 | 37767 ft | 469 kts | 290° |
| 2026-04-30 10:50 | 18.86887 | 79.43894 | 37766 ft | 469 kts | 290° |
| 2026-04-30 10:50 | 18.88821 | 79.37308 | 37766 ft | 470 kts | 290° |
| 2026-04-30 10:51 | 18.90755 | 79.30713 | 37768 ft | 471 kts | 290° |
| 2026-04-30 10:51 | 18.92689 | 79.24108 | 37770 ft | 471 kts | 290° |
| 2026-04-30 10:52 | 18.94626 | 79.17483 | 37772 ft | 471 kts | 290° |
| 2026-04-30 10:52 | 18.96556 | 79.10872 | 37775 ft | 471 kts | 290° |
| 2026-04-30 10:53 | 18.98485 | 79.04258 | 37761 ft | 471 kts | 290° |
| 2026-04-30 10:53 | 19.00414 | 78.97635 | 37776 ft | 472 kts | 290° |
| 2026-04-30 10:54 | 19.02328 | 78.91051 | 37768 ft | 472 kts | 290° |
| 2026-04-30 10:54 | 19.04253 | 78.84421 | 37781 ft | 472 kts | 290° |
| 2026-04-30 10:55 | 19.06172 | 78.77798 | 37774 ft | 471 kts | 290° |
| 2026-04-30 10:55 | 19.08090 | 78.71172 | 37773 ft | 472 kts | 290° |
| 2026-04-30 10:56 | 19.10008 | 78.64529 | 37779 ft | 472 kts | 290° |
| 2026-04-30 10:56 | 19.11923 | 78.57896 | 37780 ft | 471 kts | 290° |
| 2026-04-30 10:57 | 19.13829 | 78.51284 | 37772 ft | 470 kts | 290° |
| 2026-04-30 10:57 | 19.15735 | 78.44664 | 37771 ft | 470 kts | 290° |
| 2026-04-30 10:58 | 19.17634 | 78.38055 | 37773 ft | 470 kts | 290° |
| 2026-04-30 10:58 | 19.19534 | 78.31429 | 37764 ft | 470 kts | 290° |
| 2026-04-30 10:59 | 19.21432 | 78.24807 | 37777 ft | 470 kts | 290° |
| 2026-04-30 10:59 | 19.23328 | 78.18181 | 37774 ft | 470 kts | 290° |
| 2026-04-30 11:00 | 19.25219 | 78.11557 | 37776 ft | 470 kts | 290° |
| 2026-04-30 11:00 | 19.26846 | 78.04838 | 37767 ft | 472 kts | 286° |
| 2026-04-30 11:01 | 19.28288 | 77.98066 | 37760 ft | 472 kts | 286° |
| 2026-04-30 11:01 | 19.29762 | 77.91293 | 37774 ft | 472 kts | 287° |
| 2026-04-30 11:02 | 19.31289 | 77.84595 | 37783 ft | 471 kts | 287° |
| 2026-04-30 11:02 | 19.32844 | 77.77860 | 37786 ft | 471 kts | 287° |
| 2026-04-30 11:03 | 19.34394 | 77.71129 | 37782 ft | 471 kts | 287° |
| 2026-04-30 11:04 | 19.36710 | 77.61025 | 37782 ft | 471 kts | 287° |
| 2026-04-30 11:04 | 19.38249 | 77.54286 | 37765 ft | 470 kts | 287° |
| 2026-04-30 11:05 | 19.39783 | 77.47557 | 37774 ft | 470 kts | 287° |
| 2026-04-30 11:05 | 19.41313 | 77.40834 | 37771 ft | 469 kts | 287° |
| 2026-04-30 11:06 | 19.42841 | 77.34112 | 37769 ft | 469 kts | 287° |
| 2026-04-30 11:06 | 19.44367 | 77.27384 | 37776 ft | 470 kts | 287° |
| 2026-04-30 11:07 | 19.45894 | 77.20652 | 37777 ft | 470 kts | 287° |
| 2026-04-30 11:07 | 19.47406 | 77.13905 | 37773 ft | 471 kts | 287° |
| 2026-04-30 11:08 | 19.48915 | 77.07149 | 37778 ft | 471 kts | 287° |
| 2026-04-30 11:08 | 19.50424 | 77.00396 | 37784 ft | 471 kts | 287° |
| 2026-04-30 11:09 | 19.51936 | 76.93627 | 37784 ft | 471 kts | 287° |
| 2026-04-30 11:09 | 19.53188 | 76.88011 | 37787 ft | 471 kts | 287° |
| 2026-04-30 11:10 | 19.54946 | 76.80151 | 37789 ft | 472 kts | 287° |
| 2026-04-30 11:10 | 19.56235 | 76.74482 | 37793 ft | 473 kts | 287° |
| 2026-04-30 11:11 | 19.57777 | 76.67707 | 37790 ft | 473 kts | 287° |
| 2026-04-30 11:11 | 19.59315 | 76.60923 | 37792 ft | 473 kts | 287° |
| 2026-04-30 11:12 | 19.60847 | 76.54147 | 37792 ft | 473 kts | 287° |
| 2026-04-30 11:12 | 19.62377 | 76.47368 | 37797 ft | 473 kts | 287° |
| 2026-04-30 11:13 | 19.63905 | 76.40583 | 37790 ft | 473 kts | 287° |
| 2026-04-30 11:13 | 19.65431 | 76.33794 | 37796 ft | 473 kts | 287° |
| 2026-04-30 11:14 | 19.66954 | 76.27005 | 37791 ft | 473 kts | 287° |
| 2026-04-30 11:14 | 19.68475 | 76.20217 | 37795 ft | 473 kts | 287° |
| 2026-04-30 11:15 | 19.69992 | 76.13430 | 37779 ft | 473 kts | 286° |
| 2026-04-30 11:15 | 19.71511 | 76.06627 | 37799 ft | 475 kts | 286° |
| 2026-04-30 11:16 | 19.73032 | 75.99796 | 37794 ft | 475 kts | 286° |
| 2026-04-30 11:16 | 19.74550 | 75.92964 | 37794 ft | 475 kts | 286° |
| 2026-04-30 11:17 | 19.76066 | 75.86132 | 37803 ft | 475 kts | 286° |
| 2026-04-30 11:17 | 19.77568 | 75.79348 | 37796 ft | 475 kts | 286° |
| 2026-04-30 11:18 | 19.79079 | 75.72518 | 37804 ft | 475 kts | 286° |
| 2026-04-30 11:18 | 19.81341 | 75.62254 | 37817 ft | 476 kts | 286° |
| 2026-04-30 11:19 | 19.82848 | 75.55406 | 37826 ft | 476 kts | 286° |
| 2026-04-30 11:19 | 19.84351 | 75.48559 | 37830 ft | 476 kts | 286° |
| 2026-04-30 11:20 | 19.85849 | 75.41722 | 37828 ft | 476 kts | 285° |
| 2026-04-30 11:20 | 19.87266 | 75.34834 | 37832 ft | 477 kts | 284° |
| 2026-04-30 11:21 | 19.88513 | 75.27909 | 37827 ft | 478 kts | 283° |
| 2026-04-30 11:21 | 19.89757 | 75.20978 | 37831 ft | 478 kts | 283° |
| 2026-04-30 11:22 | 19.91029 | 75.14041 | 37827 ft | 477 kts | 284° |
| 2026-04-30 11:22 | 19.92310 | 75.07118 | 37823 ft | 477 kts | 284° |
| 2026-04-30 11:23 | 19.93591 | 75.00190 | 37825 ft | 477 kts | 283° |
| 2026-04-30 11:24 | 19.95494 | 74.89849 | 37822 ft | 477 kts | 283° |
| 2026-04-30 11:24 | 19.96772 | 74.82881 | 37826 ft | 477 kts | 283° |
| 2026-04-30 11:25 | 19.98673 | 74.72491 | 37832 ft | 477 kts | 283° |
| 2026-04-30 11:26 | 20.01198 | 74.58637 | 37837 ft | 477 kts | 283° |
| 2026-04-30 11:26 | 20.02456 | 74.51705 | 37835 ft | 477 kts | 283° |
| 2026-04-30 11:27 | 20.03711 | 74.44777 | 37842 ft | 477 kts | 283° |
| 2026-04-30 11:27 | 20.04957 | 74.37887 | 37845 ft | 477 kts | 283° |
| 2026-04-30 11:28 | 20.06833 | 74.27479 | 37847 ft | 477 kts | 283° |
| 2026-04-30 11:29 | 20.08080 | 74.20540 | 37860 ft | 477 kts | 283° |
| 2026-04-30 11:29 | 20.09943 | 74.10140 | 37860 ft | 477 kts | 283° |
| 2026-04-30 11:30 | 20.11801 | 73.99736 | 37882 ft | 477 kts | 282° |
| 2026-04-30 11:31 | 20.13033 | 73.92818 | 37887 ft | 476 kts | 282° |
| 2026-04-30 11:31 | 20.14264 | 73.85887 | 37883 ft | 476 kts | 282° |
| 2026-04-30 11:32 | 20.15492 | 73.78959 | 37884 ft | 476 kts | 282° |
| 2026-04-30 11:32 | 20.16718 | 73.72024 | 37882 ft | 476 kts | 282° |
| 2026-04-30 11:33 | 20.18543 | 73.61673 | 37878 ft | 476 kts | 282° |
| 2026-04-30 11:33 | 20.19766 | 73.54710 | 37879 ft | 475 kts | 282° |
| 2026-04-30 11:34 | 20.20978 | 73.47792 | 37873 ft | 476 kts | 282° |
| 2026-04-30 11:34 | 20.22187 | 73.40882 | 37866 ft | 475 kts | 282° |
| 2026-04-30 11:35 | 20.23399 | 73.33945 | 37857 ft | 476 kts | 282° |
| 2026-04-30 11:35 | 20.24604 | 73.27016 | 37855 ft | 475 kts | 282° |
| 2026-04-30 11:36 | 20.25841 | 73.20151 | 37847 ft | 475 kts | 283° |
| 2026-04-30 11:36 | 20.27154 | 73.13258 | 37849 ft | 475 kts | 283° |
| 2026-04-30 11:37 | 20.28462 | 73.06370 | 37842 ft | 475 kts | 283° |
| 2026-04-30 11:37 | 20.29758 | 72.99470 | 37839 ft | 475 kts | 283° |
| 2026-04-30 11:38 | 20.31045 | 72.92574 | 37825 ft | 474 kts | 282° |
| 2026-04-30 11:38 | 20.32319 | 72.85729 | 37828 ft | 474 kts | 282° |
| 2026-04-30 11:39 | 20.33607 | 72.78794 | 37820 ft | 474 kts | 282° |
| 2026-04-30 11:39 | 20.34886 | 72.71896 | 37819 ft | 474 kts | 282° |
| 2026-04-30 11:40 | 20.36161 | 72.65001 | 37814 ft | 474 kts | 282° |
| 2026-04-30 11:40 | 20.37433 | 72.58108 | 37815 ft | 474 kts | 282° |
| 2026-04-30 11:41 | 20.38695 | 72.51255 | 37803 ft | 474 kts | 282° |
| 2026-04-30 11:41 | 20.39962 | 72.44355 | 37805 ft | 474 kts | 282° |
| 2026-04-30 11:42 | 20.41234 | 72.37413 | 37801 ft | 474 kts | 282° |
| 2026-04-30 11:42 | 20.42497 | 72.30507 | 37799 ft | 474 kts | 282° |
| 2026-04-30 11:43 | 20.43747 | 72.23651 | 37792 ft | 474 kts | 282° |
| 2026-04-30 11:43 | 20.45006 | 72.16733 | 37795 ft | 475 kts | 282° |
| 2026-04-30 11:44 | 20.46260 | 72.09828 | 37790 ft | 475 kts | 282° |
| 2026-04-30 11:44 | 20.47513 | 72.02911 | 37789 ft | 475 kts | 282° |
| 2026-04-30 11:45 | 20.48765 | 71.95999 | 37793 ft | 475 kts | 282° |
| 2026-04-30 11:45 | 20.50004 | 71.89078 | 37792 ft | 475 kts | 282° |
| 2026-04-30 11:46 | 20.51239 | 71.82160 | 37792 ft | 474 kts | 282° |
| 2026-04-30 11:46 | 20.52470 | 71.75261 | 37791 ft | 474 kts | 282° |
| 2026-04-30 11:47 | 20.53702 | 71.68346 | 37790 ft | 474 kts | 282° |
| 2026-04-30 11:47 | 20.54929 | 71.61442 | 37787 ft | 474 kts | 282° |
| 2026-04-30 11:48 | 20.56155 | 71.54533 | 37782 ft | 474 kts | 281° |
| 2026-04-30 11:48 | 20.57378 | 71.47620 | 37790 ft | 475 kts | 281° |
| 2026-04-30 11:49 | 20.58600 | 71.40695 | 37790 ft | 475 kts | 281° |
| 2026-04-30 11:49 | 20.59821 | 71.33761 | 37792 ft | 475 kts | 281° |
| 2026-04-30 11:50 | 20.61039 | 71.26824 | 37793 ft | 475 kts | 281° |
| 2026-04-30 11:50 | 20.62252 | 71.19900 | 37795 ft | 475 kts | 281° |
| 2026-04-30 11:51 | 20.63456 | 71.13009 | 37795 ft | 475 kts | 281° |
| 2026-04-30 11:51 | 20.64665 | 71.06077 | 37798 ft | 475 kts | 281° |
| 2026-04-30 11:52 | 20.65676 | 71.00265 | 37802 ft | 475 kts | 281° |
| 2026-04-30 11:52 | 20.66879 | 70.93333 | 37799 ft | 475 kts | 281° |
| 2026-04-30 11:53 | 20.68079 | 70.86404 | 37797 ft | 475 kts | 281° |
| 2026-04-30 11:53 | 20.69271 | 70.79500 | 37799 ft | 476 kts | 281° |
| 2026-04-30 11:54 | 20.70470 | 70.72544 | 37803 ft | 475 kts | 281° |
| 2026-04-30 11:54 | 20.71661 | 70.65614 | 37800 ft | 474 kts | 281° |
| 2026-04-30 11:55 | 20.72848 | 70.58686 | 37805 ft | 473 kts | 281° |
| 2026-04-30 11:55 | 20.74031 | 70.51768 | 37804 ft | 473 kts | 281° |
| 2026-04-30 11:56 | 20.75212 | 70.44846 | 37800 ft | 474 kts | 281° |
| 2026-04-30 11:56 | 20.76391 | 70.37919 | 37802 ft | 474 kts | 281° |
| 2026-04-30 11:57 | 20.77567 | 70.30988 | 37803 ft | 474 kts | 281° |
| 2026-04-30 11:57 | 20.78740 | 70.24063 | 37804 ft | 474 kts | 281° |
| 2026-04-30 11:58 | 20.79910 | 70.17134 | 37795 ft | 474 kts | 281° |
| 2026-04-30 11:58 | 20.81080 | 70.10186 | 37800 ft | 475 kts | 281° |
| 2026-04-30 11:59 | 20.82247 | 70.03238 | 37796 ft | 475 kts | 281° |
| 2026-04-30 11:59 | 20.83411 | 69.96292 | 37797 ft | 475 kts | 281° |
| 2026-04-30 12:00 | 20.84572 | 69.89348 | 37806 ft | 475 kts | 281° |
| 2026-04-30 12:00 | 20.85729 | 69.82406 | 37808 ft | 475 kts | 281° |
| 2026-04-30 12:01 | 20.86887 | 69.75445 | 37795 ft | 476 kts | 281° |
| 2026-04-30 12:01 | 20.88042 | 69.68481 | 37797 ft | 476 kts | 281° |
| 2026-04-30 12:02 | 20.89194 | 69.61518 | 37791 ft | 476 kts | 281° |
| 2026-04-30 12:02 | 20.90344 | 69.54551 | 37801 ft | 476 kts | 281° |
| 2026-04-30 12:03 | 20.92066 | 69.44081 | 37806 ft | 477 kts | 281° |
| 2026-04-30 12:04 | 20.93211 | 69.37095 | 37789 ft | 477 kts | 281° |
| 2026-04-30 12:04 | 20.94354 | 69.30108 | 37806 ft | 477 kts | 281° |
| 2026-04-30 12:05 | 20.95494 | 69.23111 | 37806 ft | 477 kts | 280° |
| 2026-04-30 12:05 | 20.96632 | 69.16121 | 37797 ft | 477 kts | 280° |
| 2026-04-30 12:06 | 20.98303 | 69.09264 | 37803 ft | 478 kts | 292° |
| 2026-04-30 12:06 | 21.00897 | 69.02711 | 37796 ft | 478 kts | 294° |
| 2026-04-30 12:07 | 21.03633 | 68.96212 | 37779 ft | 478 kts | 294° |
| 2026-04-30 12:07 | 21.06356 | 68.89762 | 37798 ft | 478 kts | 294° |
| 2026-04-30 12:08 | 21.09078 | 68.83263 | 37796 ft | 478 kts | 294° |
| 2026-04-30 12:08 | 21.11781 | 68.76773 | 37796 ft | 477 kts | 294° |
| 2026-04-30 12:09 | 21.14482 | 68.70276 | 37785 ft | 477 kts | 294° |
| 2026-04-30 12:09 | 21.17181 | 68.63775 | 37801 ft | 477 kts | 294° |
| 2026-04-30 12:10 | 21.19875 | 68.57281 | 37794 ft | 477 kts | 294° |
| 2026-04-30 12:10 | 21.22568 | 68.50781 | 37781 ft | 477 kts | 293° |
| 2026-04-30 12:11 | 21.25265 | 68.44264 | 37791 ft | 479 kts | 293° |
| 2026-04-30 12:11 | 21.27965 | 68.37729 | 37788 ft | 479 kts | 293° |
| 2026-04-30 12:12 | 21.30646 | 68.31233 | 37788 ft | 479 kts | 293° |
| 2026-04-30 12:12 | 21.33354 | 68.24662 | 37781 ft | 478 kts | 293° |
| 2026-04-30 12:13 | 21.36016 | 68.18196 | 37793 ft | 477 kts | 293° |
| 2026-04-30 12:13 | 21.38692 | 68.11685 | 37792 ft | 478 kts | 293° |
| 2026-04-30 12:14 | 21.41374 | 68.05153 | 37770 ft | 478 kts | 293° |
| 2026-04-30 12:14 | 21.44051 | 67.98623 | 37787 ft | 478 kts | 293° |
| 2026-04-30 12:15 | 21.46727 | 67.92089 | 37791 ft | 478 kts | 293° |
| 2026-04-30 12:15 | 21.49401 | 67.85548 | 37775 ft | 478 kts | 293° |
| 2026-04-30 12:16 | 21.52072 | 67.79010 | 37789 ft | 478 kts | 293° |
| 2026-04-30 12:16 | 21.54739 | 67.72469 | 37789 ft | 478 kts | 293° |
| 2026-04-30 12:17 | 21.58724 | 67.62684 | 37774 ft | 475 kts | 293° |
| 2026-04-30 12:17 | 21.61369 | 67.56176 | 37774 ft | 475 kts | 292° |
| 2026-04-30 12:18 | 21.64010 | 67.49670 | 37776 ft | 476 kts | 292° |
| 2026-04-30 12:18 | 21.66658 | 67.43139 | 37775 ft | 477 kts | 292° |
| 2026-04-30 12:19 | 21.69305 | 67.36601 | 37789 ft | 477 kts | 292° |
| 2026-04-30 12:19 | 21.71949 | 67.30062 | 37775 ft | 477 kts | 292° |
| 2026-04-30 12:20 | 21.74585 | 67.23536 | 37769 ft | 477 kts | 292° |
| 2026-04-30 12:20 | 21.77229 | 67.16980 | 37793 ft | 477 kts | 292° |
| 2026-04-30 12:21 | 21.79864 | 67.10435 | 37775 ft | 476 kts | 292° |
| 2026-04-30 12:21 | 21.82495 | 67.03895 | 37771 ft | 476 kts | 292° |
| 2026-04-30 12:22 | 21.85122 | 66.97353 | 37772 ft | 476 kts | 292° |
| 2026-04-30 12:22 | 21.87748 | 66.90808 | 37775 ft | 476 kts | 292° |
| 2026-04-30 12:23 | 21.90371 | 66.84259 | 37775 ft | 476 kts | 292° |
| 2026-04-30 12:23 | 21.92992 | 66.77706 | 37770 ft | 477 kts | 292° |
| 2026-04-30 12:24 | 21.95592 | 66.71197 | 37771 ft | 477 kts | 292° |
| 2026-04-30 12:24 | 21.98211 | 66.64633 | 37771 ft | 476 kts | 292° |
| 2026-04-30 12:25 | 22.00841 | 66.58031 | 37767 ft | 476 kts | 292° |
| 2026-04-30 12:25 | 22.03429 | 66.51526 | 37767 ft | 476 kts | 292° |
| 2026-04-30 12:26 | 22.06037 | 66.44963 | 37771 ft | 476 kts | 292° |
| 2026-04-30 12:26 | 22.08645 | 66.38394 | 37764 ft | 476 kts | 292° |
| 2026-04-30 12:27 | 22.11250 | 66.31819 | 37764 ft | 476 kts | 292° |
| 2026-04-30 12:27 | 22.13851 | 66.25248 | 37767 ft | 476 kts | 292° |
| 2026-04-30 12:28 | 22.16451 | 66.18670 | 37769 ft | 477 kts | 291° |
| 2026-04-30 12:28 | 22.19049 | 66.12088 | 37764 ft | 477 kts | 291° |
| 2026-04-30 12:29 | 22.21648 | 66.05493 | 37769 ft | 477 kts | 291° |
| 2026-04-30 12:29 | 22.24237 | 65.98916 | 37763 ft | 475 kts | 291° |
| 2026-04-30 12:30 | 22.26819 | 65.92347 | 37765 ft | 475 kts | 291° |
| 2026-04-30 12:30 | 22.29402 | 65.85767 | 37762 ft | 476 kts | 291° |
| 2026-04-30 12:31 | 22.31982 | 65.79183 | 37760 ft | 476 kts | 291° |
| 2026-04-30 12:31 | 22.34559 | 65.72598 | 37761 ft | 476 kts | 291° |
| 2026-04-30 12:32 | 22.37118 | 65.66053 | 37756 ft | 476 kts | 291° |
| 2026-04-30 12:32 | 22.39691 | 65.59460 | 37755 ft | 476 kts | 291° |
| 2026-04-30 12:33 | 22.42263 | 65.52861 | 37763 ft | 477 kts | 291° |
| 2026-04-30 12:33 | 22.44833 | 65.46259 | 37759 ft | 476 kts | 291° |
| 2026-04-30 12:34 | 22.47396 | 65.39665 | 37756 ft | 476 kts | 291° |
| 2026-04-30 12:34 | 22.49542 | 65.34135 | 37756 ft | 475 kts | 291° |
| 2026-04-30 12:35 | 22.52098 | 65.27543 | 37753 ft | 476 kts | 291° |
| 2026-04-30 12:35 | 22.54639 | 65.20977 | 37755 ft | 476 kts | 291° |
| 2026-04-30 12:36 | 22.57196 | 65.14362 | 37758 ft | 476 kts | 291° |
| 2026-04-30 12:36 | 22.59752 | 65.07741 | 37755 ft | 476 kts | 291° |
| 2026-04-30 12:37 | 22.62303 | 65.01122 | 37751 ft | 476 kts | 291° |
| 2026-04-30 12:37 | 22.64851 | 64.94504 | 37753 ft | 476 kts | 291° |
| 2026-04-30 12:38 | 22.67399 | 64.87875 | 37749 ft | 477 kts | 291° |
| 2026-04-30 12:38 | 22.69940 | 64.81252 | 37749 ft | 477 kts | 290° |
| 2026-04-30 12:39 | 22.72485 | 64.74612 | 37751 ft | 477 kts | 290° |
| 2026-04-30 12:39 | 22.75023 | 64.67980 | 37751 ft | 477 kts | 290° |
| 2026-04-30 12:40 | 22.77558 | 64.61345 | 37745 ft | 477 kts | 290° |
| 2026-04-30 12:40 | 22.80095 | 64.54696 | 37746 ft | 476 kts | 290° |
| 2026-04-30 12:41 | 22.82624 | 64.48059 | 37746 ft | 476 kts | 290° |
| 2026-04-30 12:41 | 22.85135 | 64.41459 | 37748 ft | 476 kts | 290° |
| 2026-04-30 12:42 | 22.87656 | 64.34824 | 37744 ft | 476 kts | 290° |
| 2026-04-30 12:42 | 22.90171 | 64.28193 | 37744 ft | 476 kts | 290° |
| 2026-04-30 12:43 | 22.92697 | 64.21526 | 37747 ft | 477 kts | 290° |
| 2026-04-30 12:43 | 22.95215 | 64.14869 | 37747 ft | 477 kts | 290° |
| 2026-04-30 12:44 | 22.97726 | 64.08219 | 37749 ft | 477 kts | 290° |
| 2026-04-30 12:44 | 23.00237 | 64.01561 | 37743 ft | 477 kts | 290° |
| 2026-04-30 12:45 | 23.02749 | 63.94891 | 37746 ft | 477 kts | 290° |
| 2026-04-30 12:45 | 23.05173 | 63.88177 | 37746 ft | 476 kts | 285° |
| 2026-04-30 12:46 | 23.06426 | 63.81161 | 37746 ft | 474 kts | 276° |
| 2026-04-30 12:46 | 23.07207 | 63.74057 | 37746 ft | 474 kts | 275° |
| 2026-04-30 12:47 | 23.07917 | 63.66935 | 37743 ft | 474 kts | 275° |
| 2026-04-30 12:47 | 23.08633 | 63.59824 | 37744 ft | 474 kts | 275° |
| 2026-04-30 12:48 | 23.09361 | 63.52701 | 37741 ft | 474 kts | 275° |
| 2026-04-30 12:48 | 23.10091 | 63.45592 | 37742 ft | 474 kts | 275° |
| 2026-04-30 12:49 | 23.10819 | 63.38472 | 37745 ft | 474 kts | 275° |
| 2026-04-30 12:49 | 23.11542 | 63.31355 | 37747 ft | 474 kts | 275° |
| 2026-04-30 12:50 | 23.12263 | 63.24230 | 37747 ft | 474 kts | 275° |
| 2026-04-30 12:50 | 23.12979 | 63.17112 | 37748 ft | 474 kts | 275° |
| 2026-04-30 12:51 | 23.13693 | 63.09990 | 37747 ft | 474 kts | 274° |
| 2026-04-30 12:51 | 23.14404 | 63.02866 | 37747 ft | 474 kts | 274° |
| 2026-04-30 12:52 | 23.15111 | 62.95736 | 37749 ft | 474 kts | 274° |
| 2026-04-30 12:52 | 23.15815 | 62.88615 | 37753 ft | 473 kts | 274° |
| 2026-04-30 12:53 | 23.16516 | 62.81496 | 37749 ft | 473 kts | 274° |
| 2026-04-30 12:53 | 23.17208 | 62.74432 | 37750 ft | 473 kts | 274° |
| 2026-04-30 12:54 | 23.17900 | 62.67322 | 37749 ft | 473 kts | 274° |
| 2026-04-30 12:54 | 23.18590 | 62.60213 | 37753 ft | 473 kts | 274° |
| 2026-04-30 12:55 | 23.19277 | 62.53094 | 37746 ft | 473 kts | 274° |
| 2026-04-30 12:55 | 23.19960 | 62.45988 | 37752 ft | 473 kts | 274° |
| 2026-04-30 12:56 | 23.20640 | 62.38876 | 37753 ft | 473 kts | 274° |
| 2026-04-30 12:56 | 23.21316 | 62.31767 | 37755 ft | 473 kts | 274° |
| 2026-04-30 12:57 | 23.21989 | 62.24662 | 37756 ft | 473 kts | 274° |
| 2026-04-30 12:57 | 23.22660 | 62.17543 | 37749 ft | 473 kts | 274° |
| 2026-04-30 12:58 | 23.23327 | 62.10430 | 37749 ft | 473 kts | 274° |
| 2026-04-30 12:58 | 23.23991 | 62.03312 | 37757 ft | 473 kts | 274° |
| 2026-04-30 12:59 | 23.24652 | 61.96197 | 37758 ft | 473 kts | 274° |
| 2026-04-30 12:59 | 23.25311 | 61.89078 | 37748 ft | 472 kts | 274° |
| 2026-04-30 13:00 | 23.25958 | 61.82035 | 37758 ft | 471 kts | 273° |
| 2026-04-30 13:00 | 23.26606 | 61.74948 | 37756 ft | 471 kts | 273° |
| 2026-04-30 13:01 | 23.27252 | 61.67858 | 37757 ft | 471 kts | 273° |
| 2026-04-30 13:01 | 23.27894 | 61.60770 | 37758 ft | 471 kts | 273° |
| 2026-04-30 13:02 | 23.28533 | 61.53677 | 37753 ft | 471 kts | 273° |
| 2026-04-30 13:02 | 23.29169 | 61.46582 | 37754 ft | 471 kts | 273° |
| 2026-04-30 13:03 | 23.29801 | 61.39495 | 37753 ft | 471 kts | 273° |
| 2026-04-30 13:03 | 23.30430 | 61.32406 | 37748 ft | 471 kts | 273° |
| 2026-04-30 13:04 | 23.31056 | 61.25319 | 37749 ft | 471 kts | 273° |
| 2026-04-30 13:04 | 23.31680 | 61.18212 | 37756 ft | 471 kts | 273° |
| 2026-04-30 13:05 | 23.32462 | 61.11138 | 37752 ft | 472 kts | 276° |
| 2026-04-30 13:06 | 23.33885 | 61.00525 | 37749 ft | 472 kts | 276° |
| 2026-04-30 13:06 | 23.34790 | 60.93502 | 37754 ft | 471 kts | 275° |
| 2026-04-30 13:07 | 23.35677 | 60.86402 | 37756 ft | 470 kts | 275° |
| 2026-04-30 13:07 | 23.36542 | 60.79407 | 37752 ft | 470 kts | 275° |
| 2026-04-30 13:08 | 23.37411 | 60.72359 | 37758 ft | 470 kts | 275° |
| 2026-04-30 13:08 | 23.38428 | 60.65327 | 37746 ft | 472 kts | 281° |
| 2026-04-30 13:09 | 23.40558 | 60.58545 | 37758 ft | 475 kts | 288° |
| 2026-04-30 13:09 | 23.42993 | 60.51851 | 37761 ft | 476 kts | 289° |
| 2026-04-30 13:10 | 23.45467 | 60.45169 | 37752 ft | 476 kts | 289° |
| 2026-04-30 13:10 | 23.47926 | 60.38477 | 37753 ft | 476 kts | 288° |
| 2026-04-30 13:11 | 23.50367 | 60.31786 | 37756 ft | 475 kts | 288° |
| 2026-04-30 13:11 | 23.52796 | 60.25107 | 37750 ft | 474 kts | 288° |
| 2026-04-30 13:12 | 23.55221 | 60.18427 | 37759 ft | 474 kts | 288° |
| 2026-04-30 13:12 | 23.57642 | 60.11750 | 37759 ft | 474 kts | 288° |
| 2026-04-30 13:13 | 23.61273 | 60.01720 | 37754 ft | 474 kts | 288° |
| 2026-04-30 13:14 | 23.64898 | 59.91681 | 37756 ft | 474 kts | 288° |
| 2026-04-30 13:14 | 23.68510 | 59.81659 | 37760 ft | 472 kts | 288° |
| 2026-04-30 13:15 | 23.72089 | 59.71702 | 37747 ft | 472 kts | 288° |
| 2026-04-30 13:16 | 23.74480 | 59.65037 | 37753 ft | 472 kts | 288° |
| 2026-04-30 13:16 | 23.76870 | 59.58364 | 37751 ft | 472 kts | 288° |
| 2026-04-30 13:17 | 23.80444 | 59.48367 | 37741 ft | 471 kts | 288° |
| 2026-04-30 13:18 | 23.83611 | 59.39488 | 37752 ft | 471 kts | 288° |
| 2026-04-30 13:18 | 23.87170 | 59.29491 | 37750 ft | 470 kts | 288° |
| 2026-04-30 13:19 | 23.89538 | 59.22827 | 37752 ft | 470 kts | 288° |
| 2026-04-30 13:19 | 23.91898 | 59.16170 | 37751 ft | 470 kts | 288° |
| 2026-04-30 13:20 | 23.94349 | 59.09551 | 37751 ft | 471 kts | 291° |
| 2026-04-30 13:20 | 23.97177 | 59.03080 | 37750 ft | 472 kts | 292° |
| 2026-04-30 13:21 | 24.00046 | 58.96622 | 37749 ft | 472 kts | 292° |
| 2026-04-30 13:22 | 24.04240 | 58.86902 | 37746 ft | 470 kts | 291° |
| 2026-04-30 13:22 | 24.08374 | 58.77182 | 37747 ft | 469 kts | 291° |
| 2026-04-30 13:23 | 24.12485 | 58.67501 | 37750 ft | 470 kts | 291° |
| 2026-04-30 13:24 | 24.17993 | 58.54526 | 37746 ft | 469 kts | 291° |
| 2026-04-30 13:25 | 24.23473 | 58.41571 | 37746 ft | 467 kts | 291° |
| 2026-04-30 13:26 | 24.30285 | 58.25420 | 37749 ft | 467 kts | 291° |
| 2026-04-30 13:28 | 24.37076 | 58.09265 | 37758 ft | 466 kts | 291° |
| 2026-04-30 13:28 | 24.41135 | 57.99579 | 37755 ft | 465 kts | 291° |
| 2026-04-30 13:29 | 24.46528 | 57.86677 | 37755 ft | 465 kts | 291° |
| 2026-04-30 13:31 | 24.53098 | 57.70449 | 37760 ft | 464 kts | 288° |
| 2026-04-30 13:32 | 24.59224 | 57.54045 | 37758 ft | 465 kts | 289° |
| 2026-04-30 13:33 | 24.64185 | 57.40924 | 37757 ft | 465 kts | 289° |
| 2026-04-30 13:34 | 24.67903 | 57.31079 | 37758 ft | 465 kts | 289° |
| 2026-04-30 13:35 | 24.72834 | 57.17952 | 37759 ft | 463 kts | 288° |
| 2026-04-30 13:36 | 24.77722 | 57.04903 | 37760 ft | 462 kts | 288° |
| 2026-04-30 13:36 | 24.81390 | 56.95089 | 37760 ft | 462 kts | 288° |
| 2026-04-30 13:37 | 24.85049 | 56.85275 | 37763 ft | 462 kts | 288° |
| 2026-04-30 13:38 | 24.88714 | 56.75420 | 37757 ft | 465 kts | 288° |
| 2026-04-30 13:39 | 24.93603 | 56.62241 | 37766 ft | 465 kts | 288° |
| 2026-04-30 13:40 | 24.97246 | 56.52332 | 37762 ft | 465 kts | 286° |
| 2026-04-30 13:40 | 24.99320 | 56.45591 | 37765 ft | 464 kts | 284° |
| 2026-04-30 13:41 | 25.01271 | 56.38811 | 37778 ft | 464 kts | 284° |
| 2026-04-30 13:41 | 25.03266 | 56.32057 | 37766 ft | 462 kts | 284° |
| 2026-04-30 13:42 | 25.05295 | 56.25329 | 37774 ft | 462 kts | 284° |
| 2026-04-30 13:42 | 25.08325 | 56.15269 | 37769 ft | 461 kts | 284° |
| 2026-04-30 13:43 | 25.10010 | 56.08486 | 37785 ft | 456 kts | 276° |
| 2026-04-30 13:43 | 25.10964 | 56.01614 | 37782 ft | 455 kts | 275° |
| 2026-04-30 13:44 | 25.11811 | 55.94682 | 37788 ft | 455 kts | 274° |
| 2026-04-30 13:44 | 25.12641 | 55.87757 | 37793 ft | 456 kts | 274° |
| 2026-04-30 13:45 | 25.13932 | 55.77378 | 37804 ft | 456 kts | 277° |
| 2026-04-30 13:46 | 25.15246 | 55.70538 | 37797 ft | 456 kts | 279° |
| 2026-04-30 13:46 | 25.16650 | 55.63699 | 37800 ft | 456 kts | 279° |
| 2026-04-30 13:47 | 25.18061 | 55.56879 | 37802 ft | 456 kts | 279° |
| 2026-04-30 13:47 | 25.19466 | 55.50050 | 37800 ft | 456 kts | 279° |
| 2026-04-30 13:48 | 25.20590 | 55.43187 | 37802 ft | 452 kts | 270° |
| 2026-04-30 13:48 | 25.20262 | 55.36316 | 37801 ft | 447 kts | 260° |
| 2026-04-30 13:49 | 25.19308 | 55.29527 | 37799 ft | 448 kts | 258° |
| 2026-04-30 13:49 | 25.18256 | 55.22750 | 37803 ft | 448 kts | 258° |
| 2026-04-30 13:50 | 25.17496 | 55.15912 | 37810 ft | 451 kts | 267° |
| 2026-04-30 13:50 | 25.18304 | 55.09023 | 37837 ft | 457 kts | 281° |
| 2026-04-30 13:50 | 25.19144 | 55.05627 | 37808 ft | 458 kts | 282° |
| 2026-04-30 13:51 | 25.20990 | 54.98892 | 37805 ft | 458 kts | 283° |
| 2026-04-30 13:51 | 25.22872 | 54.92165 | 37804 ft | 459 kts | 283° |
| 2026-04-30 13:52 | 25.24719 | 54.85457 | 37805 ft | 459 kts | 282° |
| 2026-04-30 13:52 | 25.26557 | 54.78699 | 37808 ft | 459 kts | 282° |
| 2026-04-30 13:53 | 25.28384 | 54.71945 | 37811 ft | 459 kts | 282° |
| 2026-04-30 13:53 | 25.30207 | 54.65199 | 37806 ft | 459 kts | 282° |
| 2026-04-30 13:54 | 25.32034 | 54.58428 | 37812 ft | 458 kts | 282° |
| 2026-04-30 13:54 | 25.33850 | 54.51697 | 37810 ft | 456 kts | 282° |
| 2026-04-30 13:55 | 25.35667 | 54.44974 | 37812 ft | 457 kts | 282° |
| 2026-04-30 13:55 | 25.37485 | 54.38240 | 37815 ft | 457 kts | 282° |
| 2026-04-30 13:56 | 25.39300 | 54.31508 | 37814 ft | 457 kts | 282° |
| 2026-04-30 13:56 | 25.41100 | 54.24767 | 37812 ft | 456 kts | 282° |
| 2026-04-30 13:57 | 25.42780 | 54.18004 | 37813 ft | 456 kts | 281° |
| 2026-04-30 13:57 | 25.44431 | 54.11227 | 37821 ft | 455 kts | 281° |
| 2026-04-30 13:58 | 25.46881 | 54.01095 | 37822 ft | 454 kts | 281° |
| 2026-04-30 13:59 | 25.48496 | 53.94332 | 37820 ft | 455 kts | 281° |
| 2026-04-30 13:59 | 25.50103 | 53.87615 | 37819 ft | 455 kts | 281° |
| 2026-04-30 14:00 | 25.51727 | 53.80830 | 37822 ft | 455 kts | 281° |
| 2026-04-30 14:00 | 25.54159 | 53.70678 | 37825 ft | 455 kts | 281° |
| 2026-04-30 14:01 | 25.55507 | 53.65046 | 37832 ft | 455 kts | 280° |
| 2026-04-30 14:01 | 25.57123 | 53.58270 | 37826 ft | 455 kts | 280° |
| 2026-04-30 14:02 | 25.58736 | 53.51494 | 37825 ft | 455 kts | 280° |
| 2026-04-30 14:02 | 25.60345 | 53.44721 | 37829 ft | 455 kts | 280° |
| 2026-04-30 14:03 | 25.61954 | 53.37950 | 37825 ft | 455 kts | 280° |
| 2026-04-30 14:03 | 25.63556 | 53.31167 | 37829 ft | 454 kts | 280° |
| 2026-04-30 14:04 | 25.65149 | 53.24388 | 37827 ft | 454 kts | 280° |
| 2026-04-30 14:04 | 25.66741 | 53.17606 | 37823 ft | 455 kts | 280° |
| 2026-04-30 14:05 | 25.68332 | 53.10821 | 37825 ft | 454 kts | 280° |
| 2026-04-30 14:05 | 25.69936 | 53.04048 | 37825 ft | 455 kts | 282° |
| 2026-04-30 14:06 | 25.73860 | 52.94332 | 37832 ft | 463 kts | 292° |
| 2026-04-30 14:07 | 25.78373 | 52.84838 | 37840 ft | 464 kts | 292° |
| 2026-04-30 14:08 | 25.82877 | 52.75340 | 37836 ft | 464 kts | 292° |
| 2026-04-30 14:08 | 25.87360 | 52.65812 | 37848 ft | 464 kts | 292° |
| 2026-04-30 14:09 | 25.90349 | 52.59445 | 37832 ft | 464 kts | 292° |
| 2026-04-30 14:10 | 25.94619 | 52.49821 | 37839 ft | 463 kts | 290° |
| 2026-04-30 14:10 | 25.97419 | 52.43381 | 37838 ft | 461 kts | 290° |
| 2026-04-30 14:11 | 26.00214 | 52.37020 | 37836 ft | 461 kts | 290° |
| 2026-04-30 14:11 | 26.03068 | 52.30629 | 37845 ft | 461 kts | 291° |
| 2026-04-30 14:12 | 26.05923 | 52.24246 | 37837 ft | 461 kts | 291° |
| 2026-04-30 14:12 | 26.08773 | 52.17855 | 37837 ft | 461 kts | 291° |
| 2026-04-30 14:13 | 26.11610 | 52.11479 | 37843 ft | 457 kts | 290° |
| 2026-04-30 14:13 | 26.14424 | 52.05143 | 37839 ft | 456 kts | 290° |
| 2026-04-30 14:14 | 26.17223 | 51.98825 | 37843 ft | 456 kts | 290° |
| 2026-04-30 14:14 | 26.20067 | 51.92506 | 37843 ft | 456 kts | 291° |
| 2026-04-30 14:15 | 26.22880 | 51.86185 | 37850 ft | 456 kts | 290° |
| 2026-04-30 14:15 | 26.25660 | 51.79850 | 37845 ft | 453 kts | 290° |
| 2026-04-30 14:16 | 26.28448 | 51.73567 | 37846 ft | 452 kts | 291° |
| 2026-04-30 14:16 | 26.31244 | 51.67294 | 37847 ft | 452 kts | 291° |
| 2026-04-30 14:17 | 26.34041 | 51.61033 | 37855 ft | 452 kts | 291° |
| 2026-04-30 14:17 | 26.36833 | 51.54763 | 37849 ft | 451 kts | 291° |
| 2026-04-30 14:18 | 26.39164 | 51.48333 | 37856 ft | 444 kts | 285° |
| 2026-04-30 14:18 | 26.42286 | 51.38635 | 37850 ft | 442 kts | 284° |
| 2026-04-30 14:19 | 26.45376 | 51.28916 | 37855 ft | 443 kts | 284° |
| 2026-04-30 14:20 | 26.47429 | 51.22483 | 37854 ft | 443 kts | 284° |
| 2026-04-30 14:20 | 26.50533 | 51.12734 | 37857 ft | 442 kts | 284° |
| 2026-04-30 14:21 | 26.52570 | 51.06324 | 37856 ft | 440 kts | 284° |
| 2026-04-30 14:22 | 26.55635 | 50.96655 | 37863 ft | 440 kts | 284° |
| 2026-04-30 14:22 | 26.58691 | 50.86977 | 37852 ft | 440 kts | 284° |
| 2026-04-30 14:23 | 26.62685 | 50.74037 | 37870 ft | 440 kts | 283° |
| 2026-04-30 14:24 | 26.65654 | 50.64354 | 37865 ft | 439 kts | 283° |
| 2026-04-30 14:25 | 26.69466 | 50.51385 | 37878 ft | 439 kts | 283° |
| 2026-04-30 14:26 | 26.72185 | 50.41625 | 37884 ft | 437 kts | 281° |
| 2026-04-30 14:27 | 26.74629 | 50.31815 | 37881 ft | 436 kts | 280° |
| 2026-04-30 14:27 | 26.76293 | 50.25289 | 37881 ft | 437 kts | 281° |
| 2026-04-30 14:28 | 26.79193 | 50.15602 | 37886 ft | 438 kts | 283° |
| 2026-04-30 14:28 | 26.81167 | 50.09154 | 37892 ft | 438 kts | 283° |
| 2026-04-30 14:29 | 26.84700 | 49.97333 | 37889 ft | 436 kts | 282° |
| 2026-04-30 14:31 | 26.89773 | 49.80163 | 37892 ft | 435 kts | 282° |
| 2026-04-30 14:31 | 26.92616 | 49.70513 | 37886 ft | 435 kts | 282° |
| 2026-04-30 14:32 | 26.95456 | 49.60852 | 37885 ft | 434 kts | 282° |
| 2026-04-30 14:33 | 26.97328 | 49.54475 | 37882 ft | 433 kts | 282° |
| 2026-04-30 14:33 | 27.00142 | 49.44853 | 37884 ft | 433 kts | 282° |
| 2026-04-30 14:34 | 27.02551 | 49.38604 | 37887 ft | 441 kts | 291° |
| 2026-04-30 14:34 | 27.05518 | 49.32561 | 37892 ft | 443 kts | 292° |
| 2026-04-30 14:35 | 27.10085 | 49.23547 | 37895 ft | 443 kts | 292° |
| 2026-04-30 14:36 | 27.13124 | 49.17520 | 37897 ft | 443 kts | 292° |
| 2026-04-30 14:36 | 27.16152 | 49.11486 | 37900 ft | 443 kts | 292° |
| 2026-04-30 14:37 | 27.19175 | 49.05448 | 37925 ft | 443 kts | 292° |
| 2026-04-30 14:37 | 27.22190 | 48.99420 | 37902 ft | 442 kts | 292° |
| 2026-04-30 14:38 | 27.25200 | 48.93399 | 37903 ft | 442 kts | 292° |
| 2026-04-30 14:38 | 27.28199 | 48.87369 | 37906 ft | 441 kts | 292° |
| 2026-04-30 14:39 | 27.31187 | 48.81358 | 37909 ft | 441 kts | 292° |
| 2026-04-30 14:39 | 27.34183 | 48.75326 | 37909 ft | 440 kts | 291° |
| 2026-04-30 14:40 | 27.38657 | 48.66308 | 37913 ft | 439 kts | 291° |
| 2026-04-30 14:40 | 27.41628 | 48.60306 | 37914 ft | 439 kts | 291° |
| 2026-04-30 14:41 | 27.44596 | 48.54303 | 37916 ft | 439 kts | 291° |
| 2026-04-30 14:41 | 27.47541 | 48.48338 | 37923 ft | 438 kts | 291° |
| 2026-04-30 14:42 | 27.50514 | 48.42308 | 37902 ft | 437 kts | 291° |
| 2026-04-30 14:42 | 27.53446 | 48.36349 | 37926 ft | 438 kts | 291° |
| 2026-04-30 14:43 | 27.56396 | 48.30350 | 37920 ft | 438 kts | 291° |
| 2026-04-30 14:43 | 27.59348 | 48.24346 | 37932 ft | 438 kts | 291° |
| 2026-04-30 14:44 | 27.61821 | 48.19314 | 37902 ft | 439 kts | 291° |
| 2026-04-30 14:44 | 27.64793 | 48.13250 | 37917 ft | 443 kts | 291° |
| 2026-04-30 14:45 | 27.67775 | 48.07169 | 37913 ft | 443 kts | 291° |
| 2026-04-30 14:45 | 27.70755 | 48.01093 | 37948 ft | 442 kts | 291° |
| 2026-04-30 14:46 | 27.73722 | 47.95007 | 37918 ft | 443 kts | 290° |
| 2026-04-30 14:46 | 27.76685 | 47.88908 | 37917 ft | 443 kts | 290° |
| 2026-04-30 14:47 | 27.79654 | 47.82796 | 37917 ft | 443 kts | 290° |
| 2026-04-30 14:47 | 27.82619 | 47.76687 | 37924 ft | 442 kts | 290° |
| 2026-04-30 14:48 | 27.85126 | 47.70443 | 37920 ft | 432 kts | 283° |
| 2026-04-30 14:48 | 27.87167 | 47.64059 | 37918 ft | 432 kts | 282° |
| 2026-04-30 14:49 | 27.89140 | 47.57651 | 37923 ft | 432 kts | 282° |
| 2026-04-30 14:49 | 27.91110 | 47.51243 | 37927 ft | 432 kts | 282° |
| 2026-04-30 14:50 | 27.94064 | 47.41668 | 37945 ft | 432 kts | 282° |
| 2026-04-30 14:51 | 27.97031 | 47.32046 | 37930 ft | 432 kts | 282° |
| 2026-04-30 14:52 | 27.99989 | 47.22422 | 37935 ft | 432 kts | 282° |
| 2026-04-30 14:52 | 28.02941 | 47.12793 | 37941 ft | 431 kts | 282° |
| 2026-04-30 14:53 | 28.05884 | 47.03162 | 37944 ft | 432 kts | 282° |
| 2026-04-30 14:54 | 28.09795 | 46.90321 | 37944 ft | 432 kts | 282° |
| 2026-04-30 14:55 | 28.12870 | 46.80700 | 37947 ft | 434 kts | 284° |
| 2026-04-30 14:56 | 28.17194 | 46.67931 | 37949 ft | 434 kts | 283° |
| 2026-04-30 14:57 | 28.20390 | 46.58322 | 37949 ft | 434 kts | 283° |
| 2026-04-30 14:58 | 28.24633 | 46.45495 | 37957 ft | 434 kts | 283° |
| 2026-04-30 14:58 | 28.27810 | 46.35865 | 37958 ft | 434 kts | 283° |
| 2026-04-30 15:00 | 28.33088 | 46.19812 | 37989 ft | 434 kts | 283° |
| 2026-04-30 15:01 | 28.37391 | 46.06964 | 37971 ft | 437 kts | 285° |
| 2026-04-30 15:01 | 28.41015 | 45.97447 | 37963 ft | 438 kts | 286° |
| 2026-04-30 15:02 | 28.43410 | 45.91104 | 37972 ft | 437 kts | 286° |
| 2026-04-30 15:03 | 28.49300 | 45.75210 | 37962 ft | 437 kts | 286° |
| 2026-04-30 15:04 | 28.55177 | 45.59268 | 37963 ft | 438 kts | 286° |
| 2026-04-30 15:06 | 28.61040 | 45.43305 | 37963 ft | 437 kts | 286° |
| 2026-04-30 15:07 | 28.65708 | 45.30543 | 37963 ft | 437 kts | 286° |
| 2026-04-30 15:08 | 28.70365 | 45.17768 | 37962 ft | 436 kts | 286° |
| 2026-04-30 15:09 | 28.76157 | 45.01817 | 37966 ft | 436 kts | 286° |
| 2026-04-30 15:10 | 28.80775 | 44.89049 | 37958 ft | 435 kts | 286° |
| 2026-04-30 15:11 | 28.86392 | 44.69675 | 37963 ft | 424 kts | 272° |
| 2026-04-30 15:13 | 28.87746 | 44.52959 | 37961 ft | 422 kts | 271° |
| 2026-04-30 15:14 | 28.89570 | 44.29619 | 37963 ft | 421 kts | 271° |
| 2026-04-30 15:17 | 28.91862 | 43.99714 | 37969 ft | 420 kts | 271° |
| 2026-04-30 15:19 | 28.93838 | 43.73186 | 37964 ft | 418 kts | 271° |